<?xml version="1.0" encoding="UTF-8" standalone="no" ?>
<gpx xmlns="http://www.topografix.com/GPX/1/1" xmlns:xsi="http://www.w3.org/2001/XMLSchema-instance" xsi:schemaLocation="http://www.topografix.com/GPX/1/1 http://www.topografix.com/GPX/1/1/gpx.xsd" version="1.1" creator="VisuGPX - https://www.visugpx.com">
  <metadata>
    <name>83 - V - Lorgues</name>
    <desc><![CDATA[grp_trc:]]></desc>
  </metadata>
  <trk>
    <name><![CDATA[9 sept. 2022]]></name>
    <cmt><![CDATA[13:36:28]]></cmt>
    <desc><![CDATA[comment ...]]></desc>
    <trkseg>
      <trkpt lat="43.50069" lon="6.37346">
        <ele>277</ele>
        <time>2022-09-09T11:36:27Z</time>
      </trkpt>
      <trkpt lat="43.50069" lon="6.37346">
        <ele>277</ele>
        <time>2022-09-09T11:36:28Z</time>
      </trkpt>
      <trkpt lat="43.50069" lon="6.37349">
        <ele>277</ele>
        <time>2022-09-09T11:38:44Z</time>
      </trkpt>
      <trkpt lat="43.50071" lon="6.37356">
        <ele>276</ele>
        <time>2022-09-09T11:39:15Z</time>
      </trkpt>
      <trkpt lat="43.5007" lon="6.37356">
        <ele>277</ele>
        <time>2022-09-09T11:40:17Z</time>
      </trkpt>
      <trkpt lat="43.50072" lon="6.37353">
        <ele>278</ele>
        <time>2022-09-09T11:42:01Z</time>
      </trkpt>
      <trkpt lat="43.50074" lon="6.37361">
        <ele>279</ele>
        <time>2022-09-09T11:42:15Z</time>
      </trkpt>
      <trkpt lat="43.50076" lon="6.37363">
        <ele>280</ele>
        <time>2022-09-09T11:42:18Z</time>
      </trkpt>
      <trkpt lat="43.50089" lon="6.37371">
        <ele>283</ele>
        <time>2022-09-09T11:42:38Z</time>
      </trkpt>
      <trkpt lat="43.50093" lon="6.3737">
        <ele>282</ele>
        <time>2022-09-09T11:42:43Z</time>
      </trkpt>
      <trkpt lat="43.50095" lon="6.37366">
        <ele>281</ele>
        <time>2022-09-09T11:42:46Z</time>
      </trkpt>
      <trkpt lat="43.50097" lon="6.37362">
        <ele>280</ele>
        <time>2022-09-09T11:42:49Z</time>
      </trkpt>
      <trkpt lat="43.50097" lon="6.37357">
        <ele>279</ele>
        <time>2022-09-09T11:42:54Z</time>
      </trkpt>
      <trkpt lat="43.50097" lon="6.37352">
        <ele>278</ele>
        <time>2022-09-09T11:42:58Z</time>
      </trkpt>
      <trkpt lat="43.50099" lon="6.37348">
        <ele>277</ele>
        <time>2022-09-09T11:43:01Z</time>
      </trkpt>
      <trkpt lat="43.50102" lon="6.37344">
        <ele>276</ele>
        <time>2022-09-09T11:43:05Z</time>
      </trkpt>
      <trkpt lat="43.50107" lon="6.37334">
        <ele>273</ele>
        <time>2022-09-09T11:43:14Z</time>
      </trkpt>
      <trkpt lat="43.5011" lon="6.3733">
        <ele>272</ele>
        <time>2022-09-09T11:43:19Z</time>
      </trkpt>
      <trkpt lat="43.50113" lon="6.37327">
        <ele>272</ele>
        <time>2022-09-09T11:43:23Z</time>
      </trkpt>
      <trkpt lat="43.50118" lon="6.37326">
        <ele>271</ele>
        <time>2022-09-09T11:43:28Z</time>
      </trkpt>
      <trkpt lat="43.50125" lon="6.37332">
        <ele>273</ele>
        <time>2022-09-09T11:43:37Z</time>
      </trkpt>
      <trkpt lat="43.50129" lon="6.37334">
        <ele>273</ele>
        <time>2022-09-09T11:43:41Z</time>
      </trkpt>
      <trkpt lat="43.50132" lon="6.37339">
        <ele>273</ele>
        <time>2022-09-09T11:43:46Z</time>
      </trkpt>
      <trkpt lat="43.50133" lon="6.37354">
        <ele>276</ele>
        <time>2022-09-09T11:43:58Z</time>
      </trkpt>
      <trkpt lat="43.50135" lon="6.37359">
        <ele>277</ele>
        <time>2022-09-09T11:44:04Z</time>
      </trkpt>
      <trkpt lat="43.50138" lon="6.37363">
        <ele>278</ele>
        <time>2022-09-09T11:44:08Z</time>
      </trkpt>
      <trkpt lat="43.50142" lon="6.37368">
        <ele>280</ele>
        <time>2022-09-09T11:44:14Z</time>
      </trkpt>
      <trkpt lat="43.50145" lon="6.37372">
        <ele>281</ele>
        <time>2022-09-09T11:44:19Z</time>
      </trkpt>
      <trkpt lat="43.50148" lon="6.37375">
        <ele>282</ele>
        <time>2022-09-09T11:44:23Z</time>
      </trkpt>
      <trkpt lat="43.50152" lon="6.37379">
        <ele>282</ele>
        <time>2022-09-09T11:44:29Z</time>
      </trkpt>
      <trkpt lat="43.50156" lon="6.37383">
        <ele>284</ele>
        <time>2022-09-09T11:44:36Z</time>
      </trkpt>
      <trkpt lat="43.50163" lon="6.37391">
        <ele>286</ele>
        <time>2022-09-09T11:44:50Z</time>
      </trkpt>
      <trkpt lat="43.50166" lon="6.37395">
        <ele>287</ele>
        <time>2022-09-09T11:44:56Z</time>
      </trkpt>
      <trkpt lat="43.5017" lon="6.37399">
        <ele>287</ele>
        <time>2022-09-09T11:45:00Z</time>
      </trkpt>
      <trkpt lat="43.50173" lon="6.37403">
        <ele>286</ele>
        <time>2022-09-09T11:45:05Z</time>
      </trkpt>
      <trkpt lat="43.50177" lon="6.37406">
        <ele>287</ele>
        <time>2022-09-09T11:45:12Z</time>
      </trkpt>
      <trkpt lat="43.50186" lon="6.37412">
        <ele>290</ele>
        <time>2022-09-09T11:45:26Z</time>
      </trkpt>
      <trkpt lat="43.5019" lon="6.37413">
        <ele>292</ele>
        <time>2022-09-09T11:45:30Z</time>
      </trkpt>
      <trkpt lat="43.50198" lon="6.37418">
        <ele>291</ele>
        <time>2022-09-09T11:45:39Z</time>
      </trkpt>
      <trkpt lat="43.50226" lon="6.37427">
        <ele>293</ele>
        <time>2022-09-09T11:46:11Z</time>
      </trkpt>
      <trkpt lat="43.50254" lon="6.37435">
        <ele>294</ele>
        <time>2022-09-09T11:46:41Z</time>
      </trkpt>
      <trkpt lat="43.50258" lon="6.37435">
        <ele>294</ele>
        <time>2022-09-09T11:46:45Z</time>
      </trkpt>
      <trkpt lat="43.50265" lon="6.3744">
        <ele>294</ele>
        <time>2022-09-09T11:46:53Z</time>
      </trkpt>
      <trkpt lat="43.50269" lon="6.37438">
        <ele>294</ele>
        <time>2022-09-09T11:46:57Z</time>
      </trkpt>
      <trkpt lat="43.50273" lon="6.37441">
        <ele>294</ele>
        <time>2022-09-09T11:47:02Z</time>
      </trkpt>
      <trkpt lat="43.50277" lon="6.37444">
        <ele>293</ele>
        <time>2022-09-09T11:47:07Z</time>
      </trkpt>
      <trkpt lat="43.50285" lon="6.37445">
        <ele>294</ele>
        <time>2022-09-09T11:47:17Z</time>
      </trkpt>
      <trkpt lat="43.50289" lon="6.37447">
        <ele>295</ele>
        <time>2022-09-09T11:47:23Z</time>
      </trkpt>
      <trkpt lat="43.50294" lon="6.37448">
        <ele>295</ele>
        <time>2022-09-09T11:47:28Z</time>
      </trkpt>
      <trkpt lat="43.50305" lon="6.37451">
        <ele>299</ele>
        <time>2022-09-09T11:47:41Z</time>
      </trkpt>
      <trkpt lat="43.50309" lon="6.37454">
        <ele>300</ele>
        <time>2022-09-09T11:47:45Z</time>
      </trkpt>
      <trkpt lat="43.50313" lon="6.37455">
        <ele>302</ele>
        <time>2022-09-09T11:47:50Z</time>
      </trkpt>
      <trkpt lat="43.50317" lon="6.37458">
        <ele>303</ele>
        <time>2022-09-09T11:47:55Z</time>
      </trkpt>
      <trkpt lat="43.50336" lon="6.37463">
        <ele>307</ele>
        <time>2022-09-09T11:48:22Z</time>
      </trkpt>
      <trkpt lat="43.50343" lon="6.37469">
        <ele>309</ele>
        <time>2022-09-09T11:48:34Z</time>
      </trkpt>
      <trkpt lat="43.50347" lon="6.37471">
        <ele>310</ele>
        <time>2022-09-09T11:48:39Z</time>
      </trkpt>
      <trkpt lat="43.5035" lon="6.37474">
        <ele>311</ele>
        <time>2022-09-09T11:48:43Z</time>
      </trkpt>
      <trkpt lat="43.50355" lon="6.37476">
        <ele>312</ele>
        <time>2022-09-09T11:48:49Z</time>
      </trkpt>
      <trkpt lat="43.50358" lon="6.37478">
        <ele>312</ele>
        <time>2022-09-09T11:48:53Z</time>
      </trkpt>
      <trkpt lat="43.50362" lon="6.37478">
        <ele>311</ele>
        <time>2022-09-09T11:48:57Z</time>
      </trkpt>
      <trkpt lat="43.50388" lon="6.37482">
        <ele>316</ele>
        <time>2022-09-09T11:49:26Z</time>
      </trkpt>
      <trkpt lat="43.50392" lon="6.37482">
        <ele>316</ele>
        <time>2022-09-09T11:49:31Z</time>
      </trkpt>
      <trkpt lat="43.50408" lon="6.37484">
        <ele>316</ele>
        <time>2022-09-09T11:49:47Z</time>
      </trkpt>
      <trkpt lat="43.50416" lon="6.37488">
        <ele>318</ele>
        <time>2022-09-09T11:49:56Z</time>
      </trkpt>
      <trkpt lat="43.5042" lon="6.37488">
        <ele>318</ele>
        <time>2022-09-09T11:50:02Z</time>
      </trkpt>
      <trkpt lat="43.50424" lon="6.37489">
        <ele>319</ele>
        <time>2022-09-09T11:50:07Z</time>
      </trkpt>
      <trkpt lat="43.50427" lon="6.37491">
        <ele>320</ele>
        <time>2022-09-09T11:50:11Z</time>
      </trkpt>
      <trkpt lat="43.50434" lon="6.37494">
        <ele>322</ele>
        <time>2022-09-09T11:50:22Z</time>
      </trkpt>
      <trkpt lat="43.50442" lon="6.37495">
        <ele>323</ele>
        <time>2022-09-09T11:50:31Z</time>
      </trkpt>
      <trkpt lat="43.50455" lon="6.37499">
        <ele>323</ele>
        <time>2022-09-09T11:50:45Z</time>
      </trkpt>
      <trkpt lat="43.50459" lon="6.37498">
        <ele>323</ele>
        <time>2022-09-09T11:50:49Z</time>
      </trkpt>
      <trkpt lat="43.50476" lon="6.37501">
        <ele>322</ele>
        <time>2022-09-09T11:51:09Z</time>
      </trkpt>
      <trkpt lat="43.5048" lon="6.37503">
        <ele>322</ele>
        <time>2022-09-09T11:51:14Z</time>
      </trkpt>
      <trkpt lat="43.50503" lon="6.37503">
        <ele>323</ele>
        <time>2022-09-09T11:51:42Z</time>
      </trkpt>
      <trkpt lat="43.50507" lon="6.37502">
        <ele>322</ele>
        <time>2022-09-09T11:51:46Z</time>
      </trkpt>
      <trkpt lat="43.50516" lon="6.37503">
        <ele>322</ele>
        <time>2022-09-09T11:51:56Z</time>
      </trkpt>
      <trkpt lat="43.50519" lon="6.37503">
        <ele>322</ele>
        <time>2022-09-09T11:52:00Z</time>
      </trkpt>
      <trkpt lat="43.50523" lon="6.37502">
        <ele>322</ele>
        <time>2022-09-09T11:52:04Z</time>
      </trkpt>
      <trkpt lat="43.50526" lon="6.37502">
        <ele>321</ele>
        <time>2022-09-09T11:52:07Z</time>
      </trkpt>
      <trkpt lat="43.5053" lon="6.37501">
        <ele>320</ele>
        <time>2022-09-09T11:52:12Z</time>
      </trkpt>
      <trkpt lat="43.50538" lon="6.375">
        <ele>319</ele>
        <time>2022-09-09T11:52:21Z</time>
      </trkpt>
      <trkpt lat="43.50547" lon="6.37501">
        <ele>317</ele>
        <time>2022-09-09T11:52:31Z</time>
      </trkpt>
      <trkpt lat="43.50551" lon="6.37499">
        <ele>317</ele>
        <time>2022-09-09T11:52:36Z</time>
      </trkpt>
      <trkpt lat="43.50555" lon="6.37499">
        <ele>317</ele>
        <time>2022-09-09T11:52:42Z</time>
      </trkpt>
      <trkpt lat="43.5056" lon="6.37499">
        <ele>317</ele>
        <time>2022-09-09T11:52:47Z</time>
      </trkpt>
      <trkpt lat="43.50567" lon="6.37498">
        <ele>317</ele>
        <time>2022-09-09T11:52:56Z</time>
      </trkpt>
      <trkpt lat="43.50572" lon="6.37499">
        <ele>316</ele>
        <time>2022-09-09T11:53:03Z</time>
      </trkpt>
      <trkpt lat="43.50588" lon="6.37495">
        <ele>317</ele>
        <time>2022-09-09T11:53:20Z</time>
      </trkpt>
      <trkpt lat="43.50596" lon="6.37493">
        <ele>316</ele>
        <time>2022-09-09T11:53:31Z</time>
      </trkpt>
      <trkpt lat="43.50604" lon="6.37491">
        <ele>316</ele>
        <time>2022-09-09T11:53:38Z</time>
      </trkpt>
      <trkpt lat="43.50612" lon="6.37489">
        <ele>316</ele>
        <time>2022-09-09T11:53:50Z</time>
      </trkpt>
      <trkpt lat="43.50624" lon="6.37486">
        <ele>315</ele>
        <time>2022-09-09T11:54:06Z</time>
      </trkpt>
      <trkpt lat="43.50636" lon="6.37483">
        <ele>314</ele>
        <time>2022-09-09T11:54:25Z</time>
      </trkpt>
      <trkpt lat="43.50642" lon="6.37481">
        <ele>313</ele>
        <time>2022-09-09T11:54:38Z</time>
      </trkpt>
      <trkpt lat="43.50649" lon="6.37478">
        <ele>311</ele>
        <time>2022-09-09T11:54:48Z</time>
      </trkpt>
      <trkpt lat="43.50657" lon="6.37475">
        <ele>310</ele>
        <time>2022-09-09T11:55:11Z</time>
      </trkpt>
      <trkpt lat="43.50661" lon="6.37473">
        <ele>308</ele>
        <time>2022-09-09T11:55:18Z</time>
      </trkpt>
      <trkpt lat="43.50665" lon="6.37469">
        <ele>307</ele>
        <time>2022-09-09T11:55:22Z</time>
      </trkpt>
      <trkpt lat="43.5067" lon="6.37467">
        <ele>307</ele>
        <time>2022-09-09T11:55:32Z</time>
      </trkpt>
      <trkpt lat="43.50679" lon="6.37466">
        <ele>307</ele>
        <time>2022-09-09T11:55:44Z</time>
      </trkpt>
      <trkpt lat="43.50687" lon="6.37463">
        <ele>306</ele>
        <time>2022-09-09T11:55:59Z</time>
      </trkpt>
      <trkpt lat="43.5069" lon="6.3746">
        <ele>306</ele>
        <time>2022-09-09T11:56:05Z</time>
      </trkpt>
      <trkpt lat="43.50698" lon="6.37457">
        <ele>303</ele>
        <time>2022-09-09T11:56:19Z</time>
      </trkpt>
      <trkpt lat="43.50702" lon="6.37453">
        <ele>301</ele>
        <time>2022-09-09T11:56:25Z</time>
      </trkpt>
      <trkpt lat="43.5071" lon="6.37449">
        <ele>300</ele>
        <time>2022-09-09T11:56:38Z</time>
      </trkpt>
      <trkpt lat="43.5072" lon="6.37444">
        <ele>297</ele>
        <time>2022-09-09T11:56:59Z</time>
      </trkpt>
      <trkpt lat="43.50727" lon="6.37442">
        <ele>295</ele>
        <time>2022-09-09T11:57:11Z</time>
      </trkpt>
      <trkpt lat="43.50731" lon="6.37439">
        <ele>295</ele>
        <time>2022-09-09T11:57:17Z</time>
      </trkpt>
      <trkpt lat="43.50739" lon="6.37436">
        <ele>294</ele>
        <time>2022-09-09T11:57:27Z</time>
      </trkpt>
      <trkpt lat="43.50751" lon="6.3743">
        <ele>292</ele>
        <time>2022-09-09T11:57:48Z</time>
      </trkpt>
      <trkpt lat="43.5075" lon="6.37429">
        <ele>296</ele>
        <time>2022-09-09T12:01:40Z</time>
      </trkpt>
      <trkpt lat="43.50753" lon="6.37431">
        <ele>296</ele>
        <time>2022-09-09T12:03:04Z</time>
      </trkpt>
      <trkpt lat="43.50755" lon="6.37435">
        <ele>294</ele>
        <time>2022-09-09T12:03:11Z</time>
      </trkpt>
      <trkpt lat="43.50757" lon="6.37439">
        <ele>292</ele>
        <time>2022-09-09T12:03:19Z</time>
      </trkpt>
      <trkpt lat="43.50758" lon="6.37444">
        <ele>291</ele>
        <time>2022-09-09T12:03:25Z</time>
      </trkpt>
      <trkpt lat="43.5076" lon="6.37449">
        <ele>291</ele>
        <time>2022-09-09T12:03:30Z</time>
      </trkpt>
      <trkpt lat="43.50767" lon="6.37478">
        <ele>292</ele>
        <time>2022-09-09T12:04:00Z</time>
      </trkpt>
      <trkpt lat="43.50769" lon="6.37486">
        <ele>291</ele>
        <time>2022-09-09T12:04:07Z</time>
      </trkpt>
      <trkpt lat="43.50769" lon="6.3749">
        <ele>290</ele>
        <time>2022-09-09T12:04:11Z</time>
      </trkpt>
      <trkpt lat="43.50771" lon="6.37494">
        <ele>289</ele>
        <time>2022-09-09T12:04:15Z</time>
      </trkpt>
      <trkpt lat="43.50771" lon="6.37503">
        <ele>288</ele>
        <time>2022-09-09T12:04:23Z</time>
      </trkpt>
      <trkpt lat="43.50772" lon="6.37508">
        <ele>288</ele>
        <time>2022-09-09T12:04:27Z</time>
      </trkpt>
      <trkpt lat="43.50773" lon="6.37514">
        <ele>288</ele>
        <time>2022-09-09T12:04:31Z</time>
      </trkpt>
      <trkpt lat="43.50775" lon="6.37519">
        <ele>286</ele>
        <time>2022-09-09T12:04:35Z</time>
      </trkpt>
      <trkpt lat="43.50777" lon="6.37524">
        <ele>286</ele>
        <time>2022-09-09T12:04:41Z</time>
      </trkpt>
      <trkpt lat="43.50776" lon="6.37529">
        <ele>287</ele>
        <time>2022-09-09T12:04:45Z</time>
      </trkpt>
      <trkpt lat="43.50777" lon="6.37539">
        <ele>287</ele>
        <time>2022-09-09T12:04:53Z</time>
      </trkpt>
      <trkpt lat="43.50779" lon="6.37549">
        <ele>287</ele>
        <time>2022-09-09T12:05:00Z</time>
      </trkpt>
      <trkpt lat="43.50781" lon="6.37553">
        <ele>287</ele>
        <time>2022-09-09T12:05:05Z</time>
      </trkpt>
      <trkpt lat="43.50785" lon="6.37554">
        <ele>286</ele>
        <time>2022-09-09T12:05:10Z</time>
      </trkpt>
      <trkpt lat="43.50821" lon="6.37539">
        <ele>276</ele>
        <time>2022-09-09T12:05:45Z</time>
      </trkpt>
      <trkpt lat="43.50828" lon="6.37537">
        <ele>276</ele>
        <time>2022-09-09T12:05:54Z</time>
      </trkpt>
      <trkpt lat="43.50832" lon="6.37535">
        <ele>276</ele>
        <time>2022-09-09T12:05:58Z</time>
      </trkpt>
      <trkpt lat="43.50835" lon="6.37532">
        <ele>276</ele>
        <time>2022-09-09T12:06:04Z</time>
      </trkpt>
      <trkpt lat="43.50838" lon="6.37529">
        <ele>275</ele>
        <time>2022-09-09T12:06:08Z</time>
      </trkpt>
      <trkpt lat="43.50842" lon="6.37528">
        <ele>274</ele>
        <time>2022-09-09T12:06:13Z</time>
      </trkpt>
      <trkpt lat="43.50849" lon="6.37524">
        <ele>274</ele>
        <time>2022-09-09T12:06:22Z</time>
      </trkpt>
      <trkpt lat="43.50853" lon="6.37525">
        <ele>274</ele>
        <time>2022-09-09T12:06:28Z</time>
      </trkpt>
      <trkpt lat="43.50856" lon="6.37535">
        <ele>276</ele>
        <time>2022-09-09T12:06:36Z</time>
      </trkpt>
      <trkpt lat="43.50858" lon="6.3754">
        <ele>276</ele>
        <time>2022-09-09T12:06:40Z</time>
      </trkpt>
      <trkpt lat="43.5086" lon="6.37545">
        <ele>276</ele>
        <time>2022-09-09T12:06:44Z</time>
      </trkpt>
      <trkpt lat="43.50862" lon="6.3755">
        <ele>276</ele>
        <time>2022-09-09T12:06:47Z</time>
      </trkpt>
      <trkpt lat="43.50864" lon="6.37555">
        <ele>276</ele>
        <time>2022-09-09T12:06:50Z</time>
      </trkpt>
      <trkpt lat="43.50866" lon="6.37558">
        <ele>276</ele>
        <time>2022-09-09T12:06:56Z</time>
      </trkpt>
      <trkpt lat="43.50869" lon="6.37563">
        <ele>276</ele>
        <time>2022-09-09T12:06:59Z</time>
      </trkpt>
      <trkpt lat="43.50875" lon="6.37569">
        <ele>276</ele>
        <time>2022-09-09T12:07:07Z</time>
      </trkpt>
      <trkpt lat="43.50881" lon="6.37574">
        <ele>275</ele>
        <time>2022-09-09T12:07:14Z</time>
      </trkpt>
      <trkpt lat="43.50884" lon="6.37577">
        <ele>275</ele>
        <time>2022-09-09T12:07:18Z</time>
      </trkpt>
      <trkpt lat="43.50896" lon="6.37595">
        <ele>275</ele>
        <time>2022-09-09T12:07:37Z</time>
      </trkpt>
      <trkpt lat="43.50898" lon="6.37601">
        <ele>274</ele>
        <time>2022-09-09T12:07:43Z</time>
      </trkpt>
      <trkpt lat="43.50901" lon="6.37605">
        <ele>274</ele>
        <time>2022-09-09T12:07:47Z</time>
      </trkpt>
      <trkpt lat="43.50913" lon="6.37613">
        <ele>274</ele>
        <time>2022-09-09T12:08:05Z</time>
      </trkpt>
      <trkpt lat="43.50917" lon="6.37616">
        <ele>275</ele>
        <time>2022-09-09T12:08:10Z</time>
      </trkpt>
      <trkpt lat="43.50919" lon="6.37621">
        <ele>275</ele>
        <time>2022-09-09T12:08:14Z</time>
      </trkpt>
      <trkpt lat="43.50922" lon="6.37624">
        <ele>274</ele>
        <time>2022-09-09T12:08:23Z</time>
      </trkpt>
      <trkpt lat="43.50926" lon="6.37628">
        <ele>273</ele>
        <time>2022-09-09T12:08:28Z</time>
      </trkpt>
      <trkpt lat="43.50933" lon="6.37635">
        <ele>270</ele>
        <time>2022-09-09T12:08:37Z</time>
      </trkpt>
      <trkpt lat="43.50934" lon="6.37641">
        <ele>269</ele>
        <time>2022-09-09T12:08:43Z</time>
      </trkpt>
      <trkpt lat="43.50939" lon="6.3765">
        <ele>268</ele>
        <time>2022-09-09T12:08:54Z</time>
      </trkpt>
      <trkpt lat="43.50945" lon="6.37658">
        <ele>268</ele>
        <time>2022-09-09T12:09:04Z</time>
      </trkpt>
      <trkpt lat="43.5095" lon="6.37666">
        <ele>267</ele>
        <time>2022-09-09T12:09:15Z</time>
      </trkpt>
      <trkpt lat="43.50954" lon="6.37668">
        <ele>267</ele>
        <time>2022-09-09T12:09:19Z</time>
      </trkpt>
      <trkpt lat="43.50956" lon="6.37672">
        <ele>267</ele>
        <time>2022-09-09T12:09:24Z</time>
      </trkpt>
      <trkpt lat="43.5096" lon="6.37676">
        <ele>267</ele>
        <time>2022-09-09T12:09:28Z</time>
      </trkpt>
      <trkpt lat="43.50968" lon="6.37683">
        <ele>265</ele>
        <time>2022-09-09T12:09:39Z</time>
      </trkpt>
      <trkpt lat="43.50971" lon="6.37685">
        <ele>264</ele>
        <time>2022-09-09T12:09:44Z</time>
      </trkpt>
      <trkpt lat="43.50974" lon="6.37691">
        <ele>264</ele>
        <time>2022-09-09T12:09:49Z</time>
      </trkpt>
      <trkpt lat="43.5098" lon="6.37698">
        <ele>264</ele>
        <time>2022-09-09T12:09:56Z</time>
      </trkpt>
      <trkpt lat="43.50982" lon="6.37702">
        <ele>263</ele>
        <time>2022-09-09T12:10:00Z</time>
      </trkpt>
      <trkpt lat="43.50986" lon="6.37705">
        <ele>263</ele>
        <time>2022-09-09T12:10:04Z</time>
      </trkpt>
      <trkpt lat="43.50989" lon="6.37708">
        <ele>263</ele>
        <time>2022-09-09T12:10:08Z</time>
      </trkpt>
      <trkpt lat="43.50991" lon="6.37713">
        <ele>261</ele>
        <time>2022-09-09T12:10:13Z</time>
      </trkpt>
      <trkpt lat="43.50993" lon="6.37717">
        <ele>260</ele>
        <time>2022-09-09T12:10:17Z</time>
      </trkpt>
      <trkpt lat="43.50995" lon="6.37722">
        <ele>260</ele>
        <time>2022-09-09T12:10:21Z</time>
      </trkpt>
      <trkpt lat="43.50997" lon="6.37727">
        <ele>261</ele>
        <time>2022-09-09T12:10:24Z</time>
      </trkpt>
      <trkpt lat="43.50999" lon="6.37731">
        <ele>261</ele>
        <time>2022-09-09T12:10:27Z</time>
      </trkpt>
      <trkpt lat="43.51002" lon="6.37736">
        <ele>260</ele>
        <time>2022-09-09T12:10:31Z</time>
      </trkpt>
      <trkpt lat="43.51005" lon="6.37748">
        <ele>259</ele>
        <time>2022-09-09T12:10:42Z</time>
      </trkpt>
      <trkpt lat="43.51007" lon="6.37752">
        <ele>259</ele>
        <time>2022-09-09T12:10:45Z</time>
      </trkpt>
      <trkpt lat="43.51009" lon="6.37756">
        <ele>259</ele>
        <time>2022-09-09T12:10:49Z</time>
      </trkpt>
      <trkpt lat="43.51011" lon="6.37762">
        <ele>258</ele>
        <time>2022-09-09T12:10:54Z</time>
      </trkpt>
      <trkpt lat="43.51014" lon="6.37767">
        <ele>257</ele>
        <time>2022-09-09T12:10:58Z</time>
      </trkpt>
      <trkpt lat="43.51019" lon="6.37776">
        <ele>260</ele>
        <time>2022-09-09T12:11:06Z</time>
      </trkpt>
      <trkpt lat="43.51018" lon="6.37783">
        <ele>260</ele>
        <time>2022-09-09T12:11:13Z</time>
      </trkpt>
      <trkpt lat="43.51018" lon="6.37803">
        <ele>260</ele>
        <time>2022-09-09T12:11:26Z</time>
      </trkpt>
      <trkpt lat="43.51016" lon="6.37813">
        <ele>259</ele>
        <time>2022-09-09T12:11:33Z</time>
      </trkpt>
      <trkpt lat="43.51015" lon="6.37818">
        <ele>258</ele>
        <time>2022-09-09T12:11:36Z</time>
      </trkpt>
      <trkpt lat="43.51015" lon="6.37824">
        <ele>258</ele>
        <time>2022-09-09T12:11:40Z</time>
      </trkpt>
      <trkpt lat="43.51015" lon="6.37835">
        <ele>257</ele>
        <time>2022-09-09T12:11:48Z</time>
      </trkpt>
      <trkpt lat="43.51015" lon="6.37841">
        <ele>258</ele>
        <time>2022-09-09T12:11:53Z</time>
      </trkpt>
      <trkpt lat="43.51017" lon="6.37853">
        <ele>258</ele>
        <time>2022-09-09T12:12:03Z</time>
      </trkpt>
      <trkpt lat="43.51018" lon="6.37858">
        <ele>257</ele>
        <time>2022-09-09T12:12:10Z</time>
      </trkpt>
      <trkpt lat="43.51016" lon="6.3787">
        <ele>254</ele>
        <time>2022-09-09T12:12:22Z</time>
      </trkpt>
      <trkpt lat="43.51016" lon="6.37877">
        <ele>253</ele>
        <time>2022-09-09T12:12:28Z</time>
      </trkpt>
      <trkpt lat="43.51015" lon="6.37883">
        <ele>253</ele>
        <time>2022-09-09T12:12:34Z</time>
      </trkpt>
      <trkpt lat="43.51013" lon="6.37887">
        <ele>253</ele>
        <time>2022-09-09T12:12:38Z</time>
      </trkpt>
      <trkpt lat="43.51012" lon="6.37892">
        <ele>252</ele>
        <time>2022-09-09T12:12:43Z</time>
      </trkpt>
      <trkpt lat="43.51011" lon="6.37897">
        <ele>250</ele>
        <time>2022-09-09T12:12:47Z</time>
      </trkpt>
      <trkpt lat="43.51011" lon="6.37902">
        <ele>250</ele>
        <time>2022-09-09T12:12:52Z</time>
      </trkpt>
      <trkpt lat="43.5101" lon="6.37913">
        <ele>249</ele>
        <time>2022-09-09T12:13:04Z</time>
      </trkpt>
      <trkpt lat="43.51012" lon="6.37923">
        <ele>248</ele>
        <time>2022-09-09T12:13:13Z</time>
      </trkpt>
      <trkpt lat="43.5101" lon="6.37929">
        <ele>247</ele>
        <time>2022-09-09T12:13:17Z</time>
      </trkpt>
      <trkpt lat="43.51009" lon="6.37934">
        <ele>245</ele>
        <time>2022-09-09T12:13:22Z</time>
      </trkpt>
      <trkpt lat="43.51008" lon="6.3794">
        <ele>246</ele>
        <time>2022-09-09T12:13:26Z</time>
      </trkpt>
      <trkpt lat="43.51007" lon="6.37946">
        <ele>245</ele>
        <time>2022-09-09T12:13:31Z</time>
      </trkpt>
      <trkpt lat="43.51005" lon="6.37955">
        <ele>245</ele>
        <time>2022-09-09T12:13:38Z</time>
      </trkpt>
      <trkpt lat="43.51003" lon="6.37961">
        <ele>244</ele>
        <time>2022-09-09T12:13:44Z</time>
      </trkpt>
      <trkpt lat="43.51002" lon="6.37965">
        <ele>243</ele>
        <time>2022-09-09T12:13:48Z</time>
      </trkpt>
      <trkpt lat="43.50995" lon="6.37973">
        <ele>241</ele>
        <time>2022-09-09T12:13:58Z</time>
      </trkpt>
      <trkpt lat="43.50992" lon="6.37976">
        <ele>240</ele>
        <time>2022-09-09T12:14:01Z</time>
      </trkpt>
      <trkpt lat="43.50976" lon="6.37985">
        <ele>236</ele>
        <time>2022-09-09T12:14:22Z</time>
      </trkpt>
      <trkpt lat="43.50966" lon="6.37988">
        <ele>235</ele>
        <time>2022-09-09T12:14:34Z</time>
      </trkpt>
      <trkpt lat="43.50948" lon="6.37994">
        <ele>234</ele>
        <time>2022-09-09T12:14:53Z</time>
      </trkpt>
      <trkpt lat="43.5094" lon="6.37998">
        <ele>235</ele>
        <time>2022-09-09T12:15:00Z</time>
      </trkpt>
      <trkpt lat="43.50927" lon="6.38003">
        <ele>234</ele>
        <time>2022-09-09T12:15:14Z</time>
      </trkpt>
      <trkpt lat="43.50923" lon="6.38003">
        <ele>234</ele>
        <time>2022-09-09T12:15:19Z</time>
      </trkpt>
      <trkpt lat="43.50917" lon="6.38005">
        <ele>234</ele>
        <time>2022-09-09T12:15:26Z</time>
      </trkpt>
      <trkpt lat="43.50913" lon="6.38006">
        <ele>234</ele>
        <time>2022-09-09T12:15:30Z</time>
      </trkpt>
      <trkpt lat="43.50902" lon="6.38007">
        <ele>235</ele>
        <time>2022-09-09T12:15:39Z</time>
      </trkpt>
      <trkpt lat="43.50888" lon="6.3801">
        <ele>234</ele>
        <time>2022-09-09T12:15:55Z</time>
      </trkpt>
      <trkpt lat="43.50879" lon="6.38009">
        <ele>234</ele>
        <time>2022-09-09T12:16:03Z</time>
      </trkpt>
      <trkpt lat="43.50876" lon="6.38005">
        <ele>234</ele>
        <time>2022-09-09T12:16:07Z</time>
      </trkpt>
      <trkpt lat="43.50872" lon="6.38004">
        <ele>234</ele>
        <time>2022-09-09T12:16:11Z</time>
      </trkpt>
      <trkpt lat="43.50868" lon="6.38002">
        <ele>234</ele>
        <time>2022-09-09T12:16:16Z</time>
      </trkpt>
      <trkpt lat="43.50862" lon="6.38">
        <ele>235</ele>
        <time>2022-09-09T12:16:23Z</time>
      </trkpt>
      <trkpt lat="43.5086" lon="6.37998">
        <ele>236</ele>
        <time>2022-09-09T12:16:30Z</time>
      </trkpt>
      <trkpt lat="43.50856" lon="6.37998">
        <ele>236</ele>
        <time>2022-09-09T12:16:34Z</time>
      </trkpt>
      <trkpt lat="43.50855" lon="6.37996">
        <ele>235</ele>
        <time>2022-09-09T12:16:37Z</time>
      </trkpt>
      <trkpt lat="43.50841" lon="6.37989">
        <ele>234</ele>
        <time>2022-09-09T12:16:52Z</time>
      </trkpt>
      <trkpt lat="43.50822" lon="6.37991">
        <ele>231</ele>
        <time>2022-09-09T12:17:12Z</time>
      </trkpt>
      <trkpt lat="43.5082" lon="6.37991">
        <ele>231</ele>
        <time>2022-09-09T12:17:15Z</time>
      </trkpt>
      <trkpt lat="43.50818" lon="6.37991">
        <ele>231</ele>
        <time>2022-09-09T12:17:18Z</time>
      </trkpt>
      <trkpt lat="43.50816" lon="6.37989">
        <ele>231</ele>
        <time>2022-09-09T12:17:22Z</time>
      </trkpt>
      <trkpt lat="43.50815" lon="6.37987">
        <ele>230</ele>
        <time>2022-09-09T12:17:27Z</time>
      </trkpt>
      <trkpt lat="43.50809" lon="6.37987">
        <ele>230</ele>
        <time>2022-09-09T12:17:35Z</time>
      </trkpt>
      <trkpt lat="43.50806" lon="6.37985">
        <ele>229</ele>
        <time>2022-09-09T12:17:38Z</time>
      </trkpt>
      <trkpt lat="43.50803" lon="6.37985">
        <ele>228</ele>
        <time>2022-09-09T12:17:41Z</time>
      </trkpt>
      <trkpt lat="43.50773" lon="6.37985">
        <ele>226</ele>
        <time>2022-09-09T12:18:10Z</time>
      </trkpt>
      <trkpt lat="43.50768" lon="6.37986">
        <ele>226</ele>
        <time>2022-09-09T12:18:14Z</time>
      </trkpt>
      <trkpt lat="43.50756" lon="6.37988">
        <ele>225</ele>
        <time>2022-09-09T12:18:24Z</time>
      </trkpt>
      <trkpt lat="43.50749" lon="6.37989">
        <ele>225</ele>
        <time>2022-09-09T12:18:37Z</time>
      </trkpt>
      <trkpt lat="43.50746" lon="6.37988">
        <ele>225</ele>
        <time>2022-09-09T12:18:39Z</time>
      </trkpt>
      <trkpt lat="43.50743" lon="6.37986">
        <ele>223</ele>
        <time>2022-09-09T12:18:48Z</time>
      </trkpt>
      <trkpt lat="43.50741" lon="6.37987">
        <ele>223</ele>
        <time>2022-09-09T12:19:02Z</time>
      </trkpt>
      <trkpt lat="43.50738" lon="6.37987">
        <ele>222</ele>
        <time>2022-09-09T12:19:07Z</time>
      </trkpt>
      <trkpt lat="43.50735" lon="6.37989">
        <ele>222</ele>
        <time>2022-09-09T12:19:15Z</time>
      </trkpt>
      <trkpt lat="43.50732" lon="6.37991">
        <ele>225</ele>
        <time>2022-09-09T12:19:22Z</time>
      </trkpt>
      <trkpt lat="43.50728" lon="6.37992">
        <ele>227</ele>
        <time>2022-09-09T12:19:28Z</time>
      </trkpt>
      <trkpt lat="43.50723" lon="6.37998">
        <ele>230</ele>
        <time>2022-09-09T12:19:38Z</time>
      </trkpt>
      <trkpt lat="43.50719" lon="6.38001">
        <ele>230</ele>
        <time>2022-09-09T12:19:47Z</time>
      </trkpt>
      <trkpt lat="43.50716" lon="6.38003">
        <ele>229</ele>
        <time>2022-09-09T12:19:56Z</time>
      </trkpt>
      <trkpt lat="43.50714" lon="6.38008">
        <ele>230</ele>
        <time>2022-09-09T12:20:02Z</time>
      </trkpt>
      <trkpt lat="43.50705" lon="6.38012">
        <ele>232</ele>
        <time>2022-09-09T12:20:15Z</time>
      </trkpt>
      <trkpt lat="43.50697" lon="6.38015">
        <ele>233</ele>
        <time>2022-09-09T12:20:24Z</time>
      </trkpt>
      <trkpt lat="43.50692" lon="6.38017">
        <ele>233</ele>
        <time>2022-09-09T12:20:29Z</time>
      </trkpt>
      <trkpt lat="43.50689" lon="6.38019">
        <ele>233</ele>
        <time>2022-09-09T12:20:34Z</time>
      </trkpt>
      <trkpt lat="43.50686" lon="6.38022">
        <ele>233</ele>
        <time>2022-09-09T12:20:40Z</time>
      </trkpt>
      <trkpt lat="43.50682" lon="6.38021">
        <ele>233</ele>
        <time>2022-09-09T12:20:48Z</time>
      </trkpt>
      <trkpt lat="43.5068" lon="6.38023">
        <ele>233</ele>
        <time>2022-09-09T12:20:53Z</time>
      </trkpt>
      <trkpt lat="43.50676" lon="6.38024">
        <ele>234</ele>
        <time>2022-09-09T12:21:02Z</time>
      </trkpt>
      <trkpt lat="43.50668" lon="6.38025">
        <ele>237</ele>
        <time>2022-09-09T12:21:13Z</time>
      </trkpt>
      <trkpt lat="43.50665" lon="6.38026">
        <ele>238</ele>
        <time>2022-09-09T12:21:23Z</time>
      </trkpt>
      <trkpt lat="43.50662" lon="6.38026">
        <ele>239</ele>
        <time>2022-09-09T12:21:27Z</time>
      </trkpt>
      <trkpt lat="43.50655" lon="6.38032">
        <ele>238</ele>
        <time>2022-09-09T12:21:41Z</time>
      </trkpt>
      <trkpt lat="43.50652" lon="6.38033">
        <ele>238</ele>
        <time>2022-09-09T12:21:50Z</time>
      </trkpt>
      <trkpt lat="43.50648" lon="6.38032">
        <ele>238</ele>
        <time>2022-09-09T12:21:56Z</time>
      </trkpt>
      <trkpt lat="43.50633" lon="6.38035">
        <ele>241</ele>
        <time>2022-09-09T12:22:23Z</time>
      </trkpt>
      <trkpt lat="43.50629" lon="6.38036">
        <ele>241</ele>
        <time>2022-09-09T12:22:28Z</time>
      </trkpt>
      <trkpt lat="43.50625" lon="6.38036">
        <ele>240</ele>
        <time>2022-09-09T12:22:35Z</time>
      </trkpt>
      <trkpt lat="43.50621" lon="6.38038">
        <ele>241</ele>
        <time>2022-09-09T12:22:43Z</time>
      </trkpt>
      <trkpt lat="43.50617" lon="6.3804">
        <ele>243</ele>
        <time>2022-09-09T12:22:50Z</time>
      </trkpt>
      <trkpt lat="43.50613" lon="6.38042">
        <ele>243</ele>
        <time>2022-09-09T12:22:57Z</time>
      </trkpt>
      <trkpt lat="43.5061" lon="6.38044">
        <ele>243</ele>
        <time>2022-09-09T12:23:03Z</time>
      </trkpt>
      <trkpt lat="43.50606" lon="6.38043">
        <ele>243</ele>
        <time>2022-09-09T12:23:10Z</time>
      </trkpt>
      <trkpt lat="43.50602" lon="6.38045">
        <ele>244</ele>
        <time>2022-09-09T12:23:18Z</time>
      </trkpt>
      <trkpt lat="43.50598" lon="6.38047">
        <ele>246</ele>
        <time>2022-09-09T12:23:26Z</time>
      </trkpt>
      <trkpt lat="43.50594" lon="6.38047">
        <ele>247</ele>
        <time>2022-09-09T12:23:33Z</time>
      </trkpt>
      <trkpt lat="43.5059" lon="6.38051">
        <ele>247</ele>
        <time>2022-09-09T12:23:43Z</time>
      </trkpt>
      <trkpt lat="43.50581" lon="6.38054">
        <ele>248</ele>
        <time>2022-09-09T12:23:58Z</time>
      </trkpt>
      <trkpt lat="43.50563" lon="6.38057">
        <ele>250</ele>
        <time>2022-09-09T12:24:35Z</time>
      </trkpt>
      <trkpt lat="43.50558" lon="6.38059">
        <ele>250</ele>
        <time>2022-09-09T12:24:42Z</time>
      </trkpt>
      <trkpt lat="43.50549" lon="6.38061">
        <ele>252</ele>
        <time>2022-09-09T12:24:56Z</time>
      </trkpt>
      <trkpt lat="43.50546" lon="6.38064">
        <ele>253</ele>
        <time>2022-09-09T12:25:04Z</time>
      </trkpt>
      <trkpt lat="43.50542" lon="6.38064">
        <ele>255</ele>
        <time>2022-09-09T12:25:11Z</time>
      </trkpt>
      <trkpt lat="43.50539" lon="6.38066">
        <ele>255</ele>
        <time>2022-09-09T12:25:16Z</time>
      </trkpt>
      <trkpt lat="43.50535" lon="6.38066">
        <ele>256</ele>
        <time>2022-09-09T12:25:24Z</time>
      </trkpt>
      <trkpt lat="43.50532" lon="6.38069">
        <ele>255</ele>
        <time>2022-09-09T12:25:42Z</time>
      </trkpt>
      <trkpt lat="43.50529" lon="6.3807">
        <ele>256</ele>
        <time>2022-09-09T12:25:46Z</time>
      </trkpt>
      <trkpt lat="43.50525" lon="6.38069">
        <ele>256</ele>
        <time>2022-09-09T12:25:57Z</time>
      </trkpt>
      <trkpt lat="43.50512" lon="6.38073">
        <ele>256</ele>
        <time>2022-09-09T12:26:23Z</time>
      </trkpt>
      <trkpt lat="43.50508" lon="6.38071">
        <ele>257</ele>
        <time>2022-09-09T12:26:31Z</time>
      </trkpt>
      <trkpt lat="43.50501" lon="6.38071">
        <ele>258</ele>
        <time>2022-09-09T12:26:43Z</time>
      </trkpt>
      <trkpt lat="43.50499" lon="6.38068">
        <ele>258</ele>
        <time>2022-09-09T12:26:53Z</time>
      </trkpt>
      <trkpt lat="43.50495" lon="6.38066">
        <ele>256</ele>
        <time>2022-09-09T12:27:03Z</time>
      </trkpt>
      <trkpt lat="43.50494" lon="6.3806">
        <ele>256</ele>
        <time>2022-09-09T12:27:14Z</time>
      </trkpt>
      <trkpt lat="43.50492" lon="6.38058">
        <ele>257</ele>
        <time>2022-09-09T12:27:18Z</time>
      </trkpt>
      <trkpt lat="43.50491" lon="6.38059">
        <ele>261</ele>
        <time>2022-09-09T12:29:33Z</time>
      </trkpt>
      <trkpt lat="43.50488" lon="6.38062">
        <ele>261</ele>
        <time>2022-09-09T12:29:44Z</time>
      </trkpt>
      <trkpt lat="43.50487" lon="6.38068">
        <ele>263</ele>
        <time>2022-09-09T12:29:58Z</time>
      </trkpt>
      <trkpt lat="43.50486" lon="6.38073">
        <ele>263</ele>
        <time>2022-09-09T12:30:05Z</time>
      </trkpt>
      <trkpt lat="43.50483" lon="6.38077">
        <ele>263</ele>
        <time>2022-09-09T12:30:30Z</time>
      </trkpt>
      <trkpt lat="43.50481" lon="6.38082">
        <ele>262</ele>
        <time>2022-09-09T12:30:37Z</time>
      </trkpt>
      <trkpt lat="43.50479" lon="6.38088">
        <ele>261</ele>
        <time>2022-09-09T12:30:44Z</time>
      </trkpt>
      <trkpt lat="43.50478" lon="6.38092">
        <ele>261</ele>
        <time>2022-09-09T12:30:49Z</time>
      </trkpt>
      <trkpt lat="43.50475" lon="6.38096">
        <ele>261</ele>
        <time>2022-09-09T12:30:55Z</time>
      </trkpt>
      <trkpt lat="43.50472" lon="6.38107">
        <ele>260</ele>
        <time>2022-09-09T12:31:08Z</time>
      </trkpt>
      <trkpt lat="43.50471" lon="6.38112">
        <ele>259</ele>
        <time>2022-09-09T12:31:13Z</time>
      </trkpt>
      <trkpt lat="43.50466" lon="6.38118">
        <ele>259</ele>
        <time>2022-09-09T12:31:24Z</time>
      </trkpt>
      <trkpt lat="43.50465" lon="6.38123">
        <ele>258</ele>
        <time>2022-09-09T12:31:33Z</time>
      </trkpt>
      <trkpt lat="43.50466" lon="6.38129">
        <ele>257</ele>
        <time>2022-09-09T12:31:46Z</time>
      </trkpt>
      <trkpt lat="43.50465" lon="6.38134">
        <ele>257</ele>
        <time>2022-09-09T12:31:50Z</time>
      </trkpt>
      <trkpt lat="43.50464" lon="6.3814">
        <ele>255</ele>
        <time>2022-09-09T12:32:00Z</time>
      </trkpt>
      <trkpt lat="43.50464" lon="6.38145">
        <ele>254</ele>
        <time>2022-09-09T12:32:05Z</time>
      </trkpt>
      <trkpt lat="43.5046" lon="6.38163">
        <ele>250</ele>
        <time>2022-09-09T12:32:42Z</time>
      </trkpt>
      <trkpt lat="43.50458" lon="6.38166">
        <ele>249</ele>
        <time>2022-09-09T12:32:48Z</time>
      </trkpt>
      <trkpt lat="43.50453" lon="6.38172">
        <ele>249</ele>
        <time>2022-09-09T12:32:59Z</time>
      </trkpt>
      <trkpt lat="43.50448" lon="6.38177">
        <ele>248</ele>
        <time>2022-09-09T12:33:08Z</time>
      </trkpt>
      <trkpt lat="43.50446" lon="6.38181">
        <ele>247</ele>
        <time>2022-09-09T12:33:13Z</time>
      </trkpt>
      <trkpt lat="43.50444" lon="6.38182">
        <ele>248</ele>
        <time>2022-09-09T12:33:23Z</time>
      </trkpt>
      <trkpt lat="43.5044" lon="6.38182">
        <ele>247</ele>
        <time>2022-09-09T12:33:49Z</time>
      </trkpt>
      <trkpt lat="43.50437" lon="6.38181">
        <ele>246</ele>
        <time>2022-09-09T12:33:54Z</time>
      </trkpt>
      <trkpt lat="43.50435" lon="6.38184">
        <ele>246</ele>
        <time>2022-09-09T12:34:11Z</time>
      </trkpt>
      <trkpt lat="43.50436" lon="6.38189">
        <ele>243</ele>
        <time>2022-09-09T12:34:42Z</time>
      </trkpt>
      <trkpt lat="43.50437" lon="6.38193">
        <ele>242</ele>
        <time>2022-09-09T12:35:10Z</time>
      </trkpt>
      <trkpt lat="43.50437" lon="6.38196">
        <ele>243</ele>
        <time>2022-09-09T12:35:57Z</time>
      </trkpt>
      <trkpt lat="43.50436" lon="6.38199">
        <ele>244</ele>
        <time>2022-09-09T12:36:04Z</time>
      </trkpt>
      <trkpt lat="43.50436" lon="6.38203">
        <ele>244</ele>
        <time>2022-09-09T12:36:31Z</time>
      </trkpt>
      <trkpt lat="43.50435" lon="6.38208">
        <ele>243</ele>
        <time>2022-09-09T12:36:37Z</time>
      </trkpt>
      <trkpt lat="43.50434" lon="6.38214">
        <ele>243</ele>
        <time>2022-09-09T12:36:42Z</time>
      </trkpt>
      <trkpt lat="43.50431" lon="6.38228">
        <ele>240</ele>
        <time>2022-09-09T12:37:03Z</time>
      </trkpt>
      <trkpt lat="43.50431" lon="6.38233">
        <ele>238</ele>
        <time>2022-09-09T12:37:09Z</time>
      </trkpt>
      <trkpt lat="43.50431" lon="6.38238">
        <ele>237</ele>
        <time>2022-09-09T12:37:18Z</time>
      </trkpt>
      <trkpt lat="43.5043" lon="6.38242">
        <ele>236</ele>
        <time>2022-09-09T12:37:44Z</time>
      </trkpt>
      <trkpt lat="43.5043" lon="6.38246">
        <ele>235</ele>
        <time>2022-09-09T12:37:54Z</time>
      </trkpt>
      <trkpt lat="43.5043" lon="6.38251">
        <ele>233</ele>
        <time>2022-09-09T12:38:01Z</time>
      </trkpt>
      <trkpt lat="43.50427" lon="6.38254">
        <ele>232</ele>
        <time>2022-09-09T12:38:07Z</time>
      </trkpt>
      <trkpt lat="43.50425" lon="6.38258">
        <ele>231</ele>
        <time>2022-09-09T12:38:14Z</time>
      </trkpt>
      <trkpt lat="43.50426" lon="6.38261">
        <ele>231</ele>
        <time>2022-09-09T12:38:28Z</time>
      </trkpt>
      <trkpt lat="43.50423" lon="6.3826">
        <ele>232</ele>
        <time>2022-09-09T12:38:45Z</time>
      </trkpt>
      <trkpt lat="43.50424" lon="6.38258">
        <ele>230</ele>
        <time>2022-09-09T12:39:12Z</time>
      </trkpt>
      <trkpt lat="43.50426" lon="6.38261">
        <ele>230</ele>
        <time>2022-09-09T12:39:16Z</time>
      </trkpt>
      <trkpt lat="43.50429" lon="6.38262">
        <ele>231</ele>
        <time>2022-09-09T12:39:23Z</time>
      </trkpt>
      <trkpt lat="43.50426" lon="6.38257">
        <ele>232</ele>
        <time>2022-09-09T12:39:39Z</time>
      </trkpt>
      <trkpt lat="43.50424" lon="6.3826">
        <ele>231</ele>
        <time>2022-09-09T12:39:43Z</time>
      </trkpt>
      <trkpt lat="43.50423" lon="6.38265">
        <ele>230</ele>
        <time>2022-09-09T12:39:59Z</time>
      </trkpt>
      <trkpt lat="43.50424" lon="6.38269">
        <ele>231</ele>
        <time>2022-09-09T12:40:13Z</time>
      </trkpt>
      <trkpt lat="43.50435" lon="6.38271">
        <ele>231</ele>
        <time>2022-09-09T12:40:33Z</time>
      </trkpt>
      <trkpt lat="43.50443" lon="6.38278">
        <ele>231</ele>
        <time>2022-09-09T12:40:45Z</time>
      </trkpt>
      <trkpt lat="43.50444" lon="6.38284">
        <ele>230</ele>
        <time>2022-09-09T12:40:51Z</time>
      </trkpt>
      <trkpt lat="43.50445" lon="6.3829">
        <ele>229</ele>
        <time>2022-09-09T12:40:57Z</time>
      </trkpt>
      <trkpt lat="43.50446" lon="6.38303">
        <ele>228</ele>
        <time>2022-09-09T12:41:07Z</time>
      </trkpt>
      <trkpt lat="43.50449" lon="6.38308">
        <ele>228</ele>
        <time>2022-09-09T12:41:13Z</time>
      </trkpt>
      <trkpt lat="43.50451" lon="6.38313">
        <ele>228</ele>
        <time>2022-09-09T12:41:18Z</time>
      </trkpt>
      <trkpt lat="43.50454" lon="6.38319">
        <ele>228</ele>
        <time>2022-09-09T12:41:23Z</time>
      </trkpt>
      <trkpt lat="43.50456" lon="6.38324">
        <ele>228</ele>
        <time>2022-09-09T12:41:30Z</time>
      </trkpt>
      <trkpt lat="43.50459" lon="6.38328">
        <ele>229</ele>
        <time>2022-09-09T12:41:34Z</time>
      </trkpt>
      <trkpt lat="43.50471" lon="6.38355">
        <ele>226</ele>
        <time>2022-09-09T12:42:05Z</time>
      </trkpt>
      <trkpt lat="43.50477" lon="6.38363">
        <ele>225</ele>
        <time>2022-09-09T12:42:14Z</time>
      </trkpt>
      <trkpt lat="43.50481" lon="6.38373">
        <ele>224</ele>
        <time>2022-09-09T12:42:23Z</time>
      </trkpt>
      <trkpt lat="43.50489" lon="6.38386">
        <ele>226</ele>
        <time>2022-09-09T12:42:40Z</time>
      </trkpt>
      <trkpt lat="43.5049" lon="6.38392">
        <ele>226</ele>
        <time>2022-09-09T12:42:46Z</time>
      </trkpt>
      <trkpt lat="43.50494" lon="6.38402">
        <ele>227</ele>
        <time>2022-09-09T12:42:57Z</time>
      </trkpt>
      <trkpt lat="43.50497" lon="6.38407">
        <ele>227</ele>
        <time>2022-09-09T12:43:02Z</time>
      </trkpt>
      <trkpt lat="43.50506" lon="6.38418">
        <ele>228</ele>
        <time>2022-09-09T12:43:16Z</time>
      </trkpt>
      <trkpt lat="43.50514" lon="6.38435">
        <ele>226</ele>
        <time>2022-09-09T12:43:33Z</time>
      </trkpt>
      <trkpt lat="43.50515" lon="6.38441">
        <ele>226</ele>
        <time>2022-09-09T12:43:39Z</time>
      </trkpt>
      <trkpt lat="43.50518" lon="6.38446">
        <ele>227</ele>
        <time>2022-09-09T12:43:45Z</time>
      </trkpt>
      <trkpt lat="43.50519" lon="6.38452">
        <ele>227</ele>
        <time>2022-09-09T12:43:50Z</time>
      </trkpt>
      <trkpt lat="43.50518" lon="6.38457">
        <ele>225</ele>
        <time>2022-09-09T12:43:54Z</time>
      </trkpt>
      <trkpt lat="43.5052" lon="6.38462">
        <ele>224</ele>
        <time>2022-09-09T12:43:58Z</time>
      </trkpt>
      <trkpt lat="43.50522" lon="6.38465">
        <ele>223</ele>
        <time>2022-09-09T12:44:09Z</time>
      </trkpt>
      <trkpt lat="43.50524" lon="6.3847">
        <ele>223</ele>
        <time>2022-09-09T12:44:14Z</time>
      </trkpt>
      <trkpt lat="43.50527" lon="6.3848">
        <ele>220</ele>
        <time>2022-09-09T12:44:23Z</time>
      </trkpt>
      <trkpt lat="43.5053" lon="6.38483">
        <ele>219</ele>
        <time>2022-09-09T12:44:29Z</time>
      </trkpt>
      <trkpt lat="43.50531" lon="6.38491">
        <ele>218</ele>
        <time>2022-09-09T12:44:34Z</time>
      </trkpt>
      <trkpt lat="43.50535" lon="6.38514">
        <ele>214</ele>
        <time>2022-09-09T12:44:52Z</time>
      </trkpt>
      <trkpt lat="43.50537" lon="6.3852">
        <ele>213</ele>
        <time>2022-09-09T12:44:56Z</time>
      </trkpt>
      <trkpt lat="43.5054" lon="6.38531">
        <ele>214</ele>
        <time>2022-09-09T12:45:04Z</time>
      </trkpt>
      <trkpt lat="43.50539" lon="6.38538">
        <ele>213</ele>
        <time>2022-09-09T12:45:09Z</time>
      </trkpt>
      <trkpt lat="43.50541" lon="6.38543">
        <ele>212</ele>
        <time>2022-09-09T12:45:15Z</time>
      </trkpt>
      <trkpt lat="43.50548" lon="6.38546">
        <ele>211</ele>
        <time>2022-09-09T12:45:43Z</time>
      </trkpt>
      <trkpt lat="43.50549" lon="6.38565">
        <ele>209</ele>
        <time>2022-09-09T12:45:59Z</time>
      </trkpt>
      <trkpt lat="43.5055" lon="6.38571">
        <ele>209</ele>
        <time>2022-09-09T12:46:04Z</time>
      </trkpt>
      <trkpt lat="43.5055" lon="6.38591">
        <ele>207</ele>
        <time>2022-09-09T12:46:18Z</time>
      </trkpt>
      <trkpt lat="43.50553" lon="6.38602">
        <ele>208</ele>
        <time>2022-09-09T12:46:27Z</time>
      </trkpt>
      <trkpt lat="43.50554" lon="6.38608">
        <ele>209</ele>
        <time>2022-09-09T12:46:32Z</time>
      </trkpt>
      <trkpt lat="43.50554" lon="6.38614">
        <ele>209</ele>
        <time>2022-09-09T12:46:37Z</time>
      </trkpt>
      <trkpt lat="43.50561" lon="6.3865">
        <ele>209</ele>
        <time>2022-09-09T12:47:03Z</time>
      </trkpt>
      <trkpt lat="43.50565" lon="6.38661">
        <ele>207</ele>
        <time>2022-09-09T12:47:14Z</time>
      </trkpt>
      <trkpt lat="43.50566" lon="6.38666">
        <ele>206</ele>
        <time>2022-09-09T12:47:21Z</time>
      </trkpt>
      <trkpt lat="43.50571" lon="6.38675">
        <ele>206</ele>
        <time>2022-09-09T12:47:29Z</time>
      </trkpt>
      <trkpt lat="43.50576" lon="6.38685">
        <ele>206</ele>
        <time>2022-09-09T12:47:38Z</time>
      </trkpt>
      <trkpt lat="43.5058" lon="6.38689">
        <ele>205</ele>
        <time>2022-09-09T12:47:46Z</time>
      </trkpt>
      <trkpt lat="43.50586" lon="6.38692">
        <ele>204</ele>
        <time>2022-09-09T12:48:12Z</time>
      </trkpt>
      <trkpt lat="43.50586" lon="6.38697">
        <ele>202</ele>
        <time>2022-09-09T12:48:38Z</time>
      </trkpt>
      <trkpt lat="43.50583" lon="6.38698">
        <ele>201</ele>
        <time>2022-09-09T12:48:51Z</time>
      </trkpt>
      <trkpt lat="43.50579" lon="6.38698">
        <ele>199</ele>
        <time>2022-09-09T12:49:04Z</time>
      </trkpt>
      <trkpt lat="43.50575" lon="6.38697">
        <ele>199</ele>
        <time>2022-09-09T12:49:12Z</time>
      </trkpt>
      <trkpt lat="43.50567" lon="6.38697">
        <ele>200</ele>
        <time>2022-09-09T12:49:22Z</time>
      </trkpt>
      <trkpt lat="43.50562" lon="6.38698">
        <ele>201</ele>
        <time>2022-09-09T12:49:34Z</time>
      </trkpt>
      <trkpt lat="43.50558" lon="6.38697">
        <ele>201</ele>
        <time>2022-09-09T12:49:40Z</time>
      </trkpt>
      <trkpt lat="43.50555" lon="6.38696">
        <ele>199</ele>
        <time>2022-09-09T12:49:46Z</time>
      </trkpt>
      <trkpt lat="43.50544" lon="6.38691">
        <ele>198</ele>
        <time>2022-09-09T12:49:57Z</time>
      </trkpt>
      <trkpt lat="43.50534" lon="6.38682">
        <ele>196</ele>
        <time>2022-09-09T12:50:15Z</time>
      </trkpt>
      <trkpt lat="43.5053" lon="6.3868">
        <ele>196</ele>
        <time>2022-09-09T12:50:21Z</time>
      </trkpt>
      <trkpt lat="43.50525" lon="6.38681">
        <ele>196</ele>
        <time>2022-09-09T12:50:25Z</time>
      </trkpt>
      <trkpt lat="43.50523" lon="6.38679">
        <ele>197</ele>
        <time>2022-09-09T12:50:29Z</time>
      </trkpt>
      <trkpt lat="43.50519" lon="6.38678">
        <ele>196</ele>
        <time>2022-09-09T12:50:36Z</time>
      </trkpt>
      <trkpt lat="43.50513" lon="6.38682">
        <ele>196</ele>
        <time>2022-09-09T12:51:02Z</time>
      </trkpt>
      <trkpt lat="43.50509" lon="6.38685">
        <ele>196</ele>
        <time>2022-09-09T12:51:11Z</time>
      </trkpt>
      <trkpt lat="43.50506" lon="6.38689">
        <ele>195</ele>
        <time>2022-09-09T12:51:17Z</time>
      </trkpt>
      <trkpt lat="43.50498" lon="6.38701">
        <ele>193</ele>
        <time>2022-09-09T12:51:42Z</time>
      </trkpt>
      <trkpt lat="43.50495" lon="6.38706">
        <ele>194</ele>
        <time>2022-09-09T12:51:47Z</time>
      </trkpt>
      <trkpt lat="43.50495" lon="6.38711">
        <ele>193</ele>
        <time>2022-09-09T12:51:53Z</time>
      </trkpt>
      <trkpt lat="43.50495" lon="6.38716">
        <ele>192</ele>
        <time>2022-09-09T12:52:02Z</time>
      </trkpt>
      <trkpt lat="43.50494" lon="6.38721">
        <ele>192</ele>
        <time>2022-09-09T12:52:05Z</time>
      </trkpt>
      <trkpt lat="43.50491" lon="6.38726">
        <ele>192</ele>
        <time>2022-09-09T12:52:12Z</time>
      </trkpt>
      <trkpt lat="43.50488" lon="6.3873">
        <ele>191</ele>
        <time>2022-09-09T12:52:18Z</time>
      </trkpt>
      <trkpt lat="43.50487" lon="6.38731">
        <ele>189</ele>
        <time>2022-09-09T12:52:43Z</time>
      </trkpt>
      <trkpt lat="43.50483" lon="6.38731">
        <ele>189</ele>
        <time>2022-09-09T12:52:49Z</time>
      </trkpt>
      <trkpt lat="43.50479" lon="6.38736">
        <ele>188</ele>
        <time>2022-09-09T12:52:57Z</time>
      </trkpt>
      <trkpt lat="43.50467" lon="6.38758">
        <ele>186</ele>
        <time>2022-09-09T12:53:15Z</time>
      </trkpt>
      <trkpt lat="43.50467" lon="6.38764">
        <ele>185</ele>
        <time>2022-09-09T12:53:20Z</time>
      </trkpt>
      <trkpt lat="43.50467" lon="6.3877">
        <ele>185</ele>
        <time>2022-09-09T12:53:35Z</time>
      </trkpt>
      <trkpt lat="43.50466" lon="6.38774">
        <ele>186</ele>
        <time>2022-09-09T12:53:41Z</time>
      </trkpt>
      <trkpt lat="43.50464" lon="6.38777">
        <ele>186</ele>
        <time>2022-09-09T12:53:46Z</time>
      </trkpt>
      <trkpt lat="43.50465" lon="6.38781">
        <ele>185</ele>
        <time>2022-09-09T12:54:16Z</time>
      </trkpt>
      <trkpt lat="43.50463" lon="6.38787">
        <ele>187</ele>
        <time>2022-09-09T12:54:22Z</time>
      </trkpt>
      <trkpt lat="43.50457" lon="6.38801">
        <ele>186</ele>
        <time>2022-09-09T12:54:37Z</time>
      </trkpt>
      <trkpt lat="43.50456" lon="6.38804">
        <ele>187</ele>
        <time>2022-09-09T12:54:40Z</time>
      </trkpt>
      <trkpt lat="43.50455" lon="6.38808">
        <ele>187</ele>
        <time>2022-09-09T12:54:44Z</time>
      </trkpt>
      <trkpt lat="43.50452" lon="6.38815">
        <ele>187</ele>
        <time>2022-09-09T12:54:50Z</time>
      </trkpt>
      <trkpt lat="43.5045" lon="6.38819">
        <ele>188</ele>
        <time>2022-09-09T12:54:56Z</time>
      </trkpt>
      <trkpt lat="43.50443" lon="6.3882">
        <ele>186</ele>
        <time>2022-09-09T12:55:06Z</time>
      </trkpt>
      <trkpt lat="43.50437" lon="6.38819">
        <ele>187</ele>
        <time>2022-09-09T12:55:13Z</time>
      </trkpt>
      <trkpt lat="43.50433" lon="6.38819">
        <ele>186</ele>
        <time>2022-09-09T12:55:18Z</time>
      </trkpt>
      <trkpt lat="43.50424" lon="6.38822">
        <ele>185</ele>
        <time>2022-09-09T12:55:31Z</time>
      </trkpt>
      <trkpt lat="43.50421" lon="6.38823">
        <ele>185</ele>
        <time>2022-09-09T12:55:35Z</time>
      </trkpt>
      <trkpt lat="43.50415" lon="6.38827">
        <ele>185</ele>
        <time>2022-09-09T12:55:49Z</time>
      </trkpt>
      <trkpt lat="43.50412" lon="6.38829">
        <ele>185</ele>
        <time>2022-09-09T12:55:53Z</time>
      </trkpt>
      <trkpt lat="43.50413" lon="6.38841">
        <ele>184</ele>
        <time>2022-09-09T12:56:05Z</time>
      </trkpt>
      <trkpt lat="43.50411" lon="6.38846">
        <ele>184</ele>
        <time>2022-09-09T12:56:13Z</time>
      </trkpt>
      <trkpt lat="43.50404" lon="6.38848">
        <ele>184</ele>
        <time>2022-09-09T12:56:23Z</time>
      </trkpt>
      <trkpt lat="43.50389" lon="6.38854">
        <ele>187</ele>
        <time>2022-09-09T12:56:46Z</time>
      </trkpt>
      <trkpt lat="43.50386" lon="6.38857">
        <ele>188</ele>
        <time>2022-09-09T12:56:49Z</time>
      </trkpt>
      <trkpt lat="43.50383" lon="6.38857">
        <ele>187</ele>
        <time>2022-09-09T12:56:53Z</time>
      </trkpt>
      <trkpt lat="43.50379" lon="6.38859">
        <ele>187</ele>
        <time>2022-09-09T12:56:58Z</time>
      </trkpt>
      <trkpt lat="43.50372" lon="6.38859">
        <ele>187</ele>
        <time>2022-09-09T12:57:11Z</time>
      </trkpt>
      <trkpt lat="43.50363" lon="6.38859">
        <ele>186</ele>
        <time>2022-09-09T12:57:27Z</time>
      </trkpt>
      <trkpt lat="43.50357" lon="6.3886">
        <ele>186</ele>
        <time>2022-09-09T12:57:35Z</time>
      </trkpt>
      <trkpt lat="43.50354" lon="6.3886">
        <ele>186</ele>
        <time>2022-09-09T12:57:39Z</time>
      </trkpt>
      <trkpt lat="43.5035" lon="6.38859">
        <ele>186</ele>
        <time>2022-09-09T12:57:44Z</time>
      </trkpt>
      <trkpt lat="43.50346" lon="6.3886">
        <ele>186</ele>
        <time>2022-09-09T12:57:48Z</time>
      </trkpt>
      <trkpt lat="43.50343" lon="6.3886">
        <ele>186</ele>
        <time>2022-09-09T12:57:51Z</time>
      </trkpt>
      <trkpt lat="43.5034" lon="6.38861">
        <ele>186</ele>
        <time>2022-09-09T12:57:55Z</time>
      </trkpt>
      <trkpt lat="43.50335" lon="6.38868">
        <ele>186</ele>
        <time>2022-09-09T12:58:03Z</time>
      </trkpt>
      <trkpt lat="43.50332" lon="6.38909">
        <ele>184</ele>
        <time>2022-09-09T12:58:34Z</time>
      </trkpt>
      <trkpt lat="43.50327" lon="6.38932">
        <ele>184</ele>
        <time>2022-09-09T12:58:54Z</time>
      </trkpt>
      <trkpt lat="43.50325" lon="6.38935">
        <ele>184</ele>
        <time>2022-09-09T12:58:57Z</time>
      </trkpt>
      <trkpt lat="43.50322" lon="6.38936">
        <ele>184</ele>
        <time>2022-09-09T12:59:00Z</time>
      </trkpt>
      <trkpt lat="43.50316" lon="6.38942">
        <ele>182</ele>
        <time>2022-09-09T12:59:24Z</time>
      </trkpt>
      <trkpt lat="43.50314" lon="6.38951">
        <ele>182</ele>
        <time>2022-09-09T12:59:32Z</time>
      </trkpt>
      <trkpt lat="43.5031" lon="6.38955">
        <ele>183</ele>
        <time>2022-09-09T12:59:37Z</time>
      </trkpt>
      <trkpt lat="43.50308" lon="6.38955">
        <ele>182</ele>
        <time>2022-09-09T12:59:42Z</time>
      </trkpt>
      <trkpt lat="43.50301" lon="6.38954">
        <ele>182</ele>
        <time>2022-09-09T12:59:49Z</time>
      </trkpt>
      <trkpt lat="43.50292" lon="6.3896">
        <ele>182</ele>
        <time>2022-09-09T12:59:58Z</time>
      </trkpt>
      <trkpt lat="43.50286" lon="6.38961">
        <ele>182</ele>
        <time>2022-09-09T13:00:04Z</time>
      </trkpt>
      <trkpt lat="43.50275" lon="6.38966">
        <ele>181</ele>
        <time>2022-09-09T13:00:13Z</time>
      </trkpt>
      <trkpt lat="43.50273" lon="6.38966">
        <ele>181</ele>
        <time>2022-09-09T13:00:16Z</time>
      </trkpt>
      <trkpt lat="43.50269" lon="6.38967">
        <ele>181</ele>
        <time>2022-09-09T13:00:20Z</time>
      </trkpt>
      <trkpt lat="43.50266" lon="6.38969">
        <ele>180</ele>
        <time>2022-09-09T13:00:23Z</time>
      </trkpt>
      <trkpt lat="43.50263" lon="6.38971">
        <ele>180</ele>
        <time>2022-09-09T13:00:26Z</time>
      </trkpt>
      <trkpt lat="43.50259" lon="6.38974">
        <ele>180</ele>
        <time>2022-09-09T13:00:30Z</time>
      </trkpt>
      <trkpt lat="43.50256" lon="6.38979">
        <ele>180</ele>
        <time>2022-09-09T13:00:35Z</time>
      </trkpt>
      <trkpt lat="43.50251" lon="6.39013">
        <ele>180</ele>
        <time>2022-09-09T13:01:05Z</time>
      </trkpt>
      <trkpt lat="43.50249" lon="6.39018">
        <ele>180</ele>
        <time>2022-09-09T13:01:09Z</time>
      </trkpt>
      <trkpt lat="43.50247" lon="6.39022">
        <ele>181</ele>
        <time>2022-09-09T13:01:13Z</time>
      </trkpt>
      <trkpt lat="43.50238" lon="6.39032">
        <ele>180</ele>
        <time>2022-09-09T13:01:28Z</time>
      </trkpt>
      <trkpt lat="43.50235" lon="6.39033">
        <ele>181</ele>
        <time>2022-09-09T13:01:31Z</time>
      </trkpt>
      <trkpt lat="43.50218" lon="6.39053">
        <ele>181</ele>
        <time>2022-09-09T13:01:56Z</time>
      </trkpt>
      <trkpt lat="43.50214" lon="6.39055">
        <ele>181</ele>
        <time>2022-09-09T13:02:00Z</time>
      </trkpt>
      <trkpt lat="43.50209" lon="6.39059">
        <ele>181</ele>
        <time>2022-09-09T13:02:06Z</time>
      </trkpt>
      <trkpt lat="43.50192" lon="6.39069">
        <ele>181</ele>
        <time>2022-09-09T13:02:29Z</time>
      </trkpt>
      <trkpt lat="43.50186" lon="6.3907">
        <ele>183</ele>
        <time>2022-09-09T13:02:39Z</time>
      </trkpt>
      <trkpt lat="43.50183" lon="6.3907">
        <ele>183</ele>
        <time>2022-09-09T13:02:46Z</time>
      </trkpt>
      <trkpt lat="43.5018" lon="6.39071">
        <ele>182</ele>
        <time>2022-09-09T13:04:38Z</time>
      </trkpt>
      <trkpt lat="43.50178" lon="6.39075">
        <ele>181</ele>
        <time>2022-09-09T13:05:09Z</time>
      </trkpt>
      <trkpt lat="43.5018" lon="6.39078">
        <ele>181</ele>
        <time>2022-09-09T13:05:18Z</time>
      </trkpt>
      <trkpt lat="43.50185" lon="6.39084">
        <ele>181</ele>
        <time>2022-09-09T13:05:28Z</time>
      </trkpt>
      <trkpt lat="43.50186" lon="6.39088">
        <ele>181</ele>
        <time>2022-09-09T13:05:34Z</time>
      </trkpt>
      <trkpt lat="43.50192" lon="6.39102">
        <ele>182</ele>
        <time>2022-09-09T13:05:51Z</time>
      </trkpt>
      <trkpt lat="43.50194" lon="6.39106">
        <ele>184</ele>
        <time>2022-09-09T13:05:56Z</time>
      </trkpt>
      <trkpt lat="43.50194" lon="6.39111">
        <ele>185</ele>
        <time>2022-09-09T13:06:01Z</time>
      </trkpt>
      <trkpt lat="43.50201" lon="6.39136">
        <ele>187</ele>
        <time>2022-09-09T13:06:32Z</time>
      </trkpt>
      <trkpt lat="43.50206" lon="6.39143">
        <ele>189</ele>
        <time>2022-09-09T13:06:45Z</time>
      </trkpt>
      <trkpt lat="43.50207" lon="6.39147">
        <ele>191</ele>
        <time>2022-09-09T13:06:50Z</time>
      </trkpt>
      <trkpt lat="43.50217" lon="6.39158">
        <ele>192</ele>
        <time>2022-09-09T13:07:09Z</time>
      </trkpt>
      <trkpt lat="43.50221" lon="6.39166">
        <ele>192</ele>
        <time>2022-09-09T13:07:21Z</time>
      </trkpt>
      <trkpt lat="43.50224" lon="6.3917">
        <ele>192</ele>
        <time>2022-09-09T13:07:25Z</time>
      </trkpt>
      <trkpt lat="43.50226" lon="6.39173">
        <ele>193</ele>
        <time>2022-09-09T13:07:30Z</time>
      </trkpt>
      <trkpt lat="43.50228" lon="6.39176">
        <ele>195</ele>
        <time>2022-09-09T13:07:36Z</time>
      </trkpt>
      <trkpt lat="43.5023" lon="6.3918">
        <ele>195</ele>
        <time>2022-09-09T13:07:41Z</time>
      </trkpt>
      <trkpt lat="43.50233" lon="6.39183">
        <ele>196</ele>
        <time>2022-09-09T13:07:50Z</time>
      </trkpt>
      <trkpt lat="43.50236" lon="6.39188">
        <ele>196</ele>
        <time>2022-09-09T13:07:57Z</time>
      </trkpt>
      <trkpt lat="43.50239" lon="6.39193">
        <ele>195</ele>
        <time>2022-09-09T13:08:05Z</time>
      </trkpt>
      <trkpt lat="43.50243" lon="6.39202">
        <ele>197</ele>
        <time>2022-09-09T13:08:20Z</time>
      </trkpt>
      <trkpt lat="43.50249" lon="6.39214">
        <ele>199</ele>
        <time>2022-09-09T13:08:45Z</time>
      </trkpt>
      <trkpt lat="43.50251" lon="6.39218">
        <ele>198</ele>
        <time>2022-09-09T13:08:49Z</time>
      </trkpt>
      <trkpt lat="43.50253" lon="6.39221">
        <ele>197</ele>
        <time>2022-09-09T13:08:56Z</time>
      </trkpt>
      <trkpt lat="43.50255" lon="6.39224">
        <ele>197</ele>
        <time>2022-09-09T13:09:04Z</time>
      </trkpt>
      <trkpt lat="43.50256" lon="6.39229">
        <ele>198</ele>
        <time>2022-09-09T13:09:11Z</time>
      </trkpt>
      <trkpt lat="43.50257" lon="6.39233">
        <ele>199</ele>
        <time>2022-09-09T13:09:17Z</time>
      </trkpt>
      <trkpt lat="43.50257" lon="6.39238">
        <ele>201</ele>
        <time>2022-09-09T13:09:22Z</time>
      </trkpt>
      <trkpt lat="43.50258" lon="6.39243">
        <ele>202</ele>
        <time>2022-09-09T13:09:30Z</time>
      </trkpt>
      <trkpt lat="43.50258" lon="6.39247">
        <ele>203</ele>
        <time>2022-09-09T13:09:34Z</time>
      </trkpt>
      <trkpt lat="43.50258" lon="6.39251">
        <ele>203</ele>
        <time>2022-09-09T13:09:39Z</time>
      </trkpt>
      <trkpt lat="43.50257" lon="6.39262">
        <ele>202</ele>
        <time>2022-09-09T13:09:52Z</time>
      </trkpt>
      <trkpt lat="43.50256" lon="6.39266">
        <ele>203</ele>
        <time>2022-09-09T13:09:56Z</time>
      </trkpt>
      <trkpt lat="43.50255" lon="6.39271">
        <ele>203</ele>
        <time>2022-09-09T13:10:01Z</time>
      </trkpt>
      <trkpt lat="43.50255" lon="6.39277">
        <ele>203</ele>
        <time>2022-09-09T13:10:08Z</time>
      </trkpt>
      <trkpt lat="43.50252" lon="6.39284">
        <ele>203</ele>
        <time>2022-09-09T13:10:21Z</time>
      </trkpt>
      <trkpt lat="43.50249" lon="6.39294">
        <ele>203</ele>
        <time>2022-09-09T13:10:30Z</time>
      </trkpt>
      <trkpt lat="43.50248" lon="6.39299">
        <ele>204</ele>
        <time>2022-09-09T13:10:35Z</time>
      </trkpt>
      <trkpt lat="43.50245" lon="6.39309">
        <ele>204</ele>
        <time>2022-09-09T13:10:44Z</time>
      </trkpt>
      <trkpt lat="43.50245" lon="6.39345">
        <ele>208</ele>
        <time>2022-09-09T13:11:15Z</time>
      </trkpt>
      <trkpt lat="43.50246" lon="6.3935">
        <ele>209</ele>
        <time>2022-09-09T13:11:19Z</time>
      </trkpt>
      <trkpt lat="43.50247" lon="6.39365">
        <ele>212</ele>
        <time>2022-09-09T13:11:31Z</time>
      </trkpt>
      <trkpt lat="43.50247" lon="6.3937">
        <ele>212</ele>
        <time>2022-09-09T13:11:36Z</time>
      </trkpt>
      <trkpt lat="43.50252" lon="6.39379">
        <ele>212</ele>
        <time>2022-09-09T13:11:45Z</time>
      </trkpt>
      <trkpt lat="43.50255" lon="6.39383">
        <ele>213</ele>
        <time>2022-09-09T13:11:50Z</time>
      </trkpt>
      <trkpt lat="43.50258" lon="6.39387">
        <ele>213</ele>
        <time>2022-09-09T13:11:56Z</time>
      </trkpt>
      <trkpt lat="43.50263" lon="6.394">
        <ele>214</ele>
        <time>2022-09-09T13:12:08Z</time>
      </trkpt>
      <trkpt lat="43.50266" lon="6.39404">
        <ele>214</ele>
        <time>2022-09-09T13:12:11Z</time>
      </trkpt>
      <trkpt lat="43.50267" lon="6.39408">
        <ele>214</ele>
        <time>2022-09-09T13:12:15Z</time>
      </trkpt>
      <trkpt lat="43.50268" lon="6.39414">
        <ele>215</ele>
        <time>2022-09-09T13:12:22Z</time>
      </trkpt>
      <trkpt lat="43.50268" lon="6.3942">
        <ele>215</ele>
        <time>2022-09-09T13:12:27Z</time>
      </trkpt>
      <trkpt lat="43.5027" lon="6.39426">
        <ele>215</ele>
        <time>2022-09-09T13:12:32Z</time>
      </trkpt>
      <trkpt lat="43.50276" lon="6.39434">
        <ele>215</ele>
        <time>2022-09-09T13:12:40Z</time>
      </trkpt>
      <trkpt lat="43.50283" lon="6.39449">
        <ele>215</ele>
        <time>2022-09-09T13:12:53Z</time>
      </trkpt>
      <trkpt lat="43.50288" lon="6.39474">
        <ele>215</ele>
        <time>2022-09-09T13:13:15Z</time>
      </trkpt>
      <trkpt lat="43.50286" lon="6.39498">
        <ele>216</ele>
        <time>2022-09-09T13:13:48Z</time>
      </trkpt>
      <trkpt lat="43.50285" lon="6.39514">
        <ele>215</ele>
        <time>2022-09-09T13:14:16Z</time>
      </trkpt>
      <trkpt lat="43.50284" lon="6.3952">
        <ele>215</ele>
        <time>2022-09-09T13:14:23Z</time>
      </trkpt>
      <trkpt lat="43.50281" lon="6.39523">
        <ele>216</ele>
        <time>2022-09-09T13:14:27Z</time>
      </trkpt>
      <trkpt lat="43.5028" lon="6.39533">
        <ele>215</ele>
        <time>2022-09-09T13:14:39Z</time>
      </trkpt>
      <trkpt lat="43.5028" lon="6.39538">
        <ele>215</ele>
        <time>2022-09-09T13:14:44Z</time>
      </trkpt>
      <trkpt lat="43.5028" lon="6.39543">
        <ele>215</ele>
        <time>2022-09-09T13:14:49Z</time>
      </trkpt>
      <trkpt lat="43.50278" lon="6.39553">
        <ele>214</ele>
        <time>2022-09-09T13:15:01Z</time>
      </trkpt>
      <trkpt lat="43.50278" lon="6.39566">
        <ele>213</ele>
        <time>2022-09-09T13:15:12Z</time>
      </trkpt>
      <trkpt lat="43.50277" lon="6.39571">
        <ele>214</ele>
        <time>2022-09-09T13:15:16Z</time>
      </trkpt>
      <trkpt lat="43.50276" lon="6.39575">
        <ele>214</ele>
        <time>2022-09-09T13:15:22Z</time>
      </trkpt>
      <trkpt lat="43.50276" lon="6.39581">
        <ele>214</ele>
        <time>2022-09-09T13:15:28Z</time>
      </trkpt>
      <trkpt lat="43.50275" lon="6.39586">
        <ele>211</ele>
        <time>2022-09-09T13:15:45Z</time>
      </trkpt>
      <trkpt lat="43.50276" lon="6.39591">
        <ele>210</ele>
        <time>2022-09-09T13:15:49Z</time>
      </trkpt>
      <trkpt lat="43.50276" lon="6.39595">
        <ele>209</ele>
        <time>2022-09-09T13:15:55Z</time>
      </trkpt>
      <trkpt lat="43.50275" lon="6.396">
        <ele>209</ele>
        <time>2022-09-09T13:16:02Z</time>
      </trkpt>
      <trkpt lat="43.50273" lon="6.39605">
        <ele>208</ele>
        <time>2022-09-09T13:16:11Z</time>
      </trkpt>
      <trkpt lat="43.5027" lon="6.39615">
        <ele>207</ele>
        <time>2022-09-09T13:16:21Z</time>
      </trkpt>
      <trkpt lat="43.50267" lon="6.39626">
        <ele>206</ele>
        <time>2022-09-09T13:16:32Z</time>
      </trkpt>
      <trkpt lat="43.50268" lon="6.39631">
        <ele>206</ele>
        <time>2022-09-09T13:16:36Z</time>
      </trkpt>
      <trkpt lat="43.50267" lon="6.39636">
        <ele>206</ele>
        <time>2022-09-09T13:16:40Z</time>
      </trkpt>
      <trkpt lat="43.50269" lon="6.39645">
        <ele>206</ele>
        <time>2022-09-09T13:16:49Z</time>
      </trkpt>
      <trkpt lat="43.50272" lon="6.39656">
        <ele>205</ele>
        <time>2022-09-09T13:16:57Z</time>
      </trkpt>
      <trkpt lat="43.50273" lon="6.3966">
        <ele>205</ele>
        <time>2022-09-09T13:17:04Z</time>
      </trkpt>
      <trkpt lat="43.50274" lon="6.39664">
        <ele>204</ele>
        <time>2022-09-09T13:17:07Z</time>
      </trkpt>
      <trkpt lat="43.50274" lon="6.39668">
        <ele>203</ele>
        <time>2022-09-09T13:17:44Z</time>
      </trkpt>
      <trkpt lat="43.50273" lon="6.39672">
        <ele>203</ele>
        <time>2022-09-09T13:19:13Z</time>
      </trkpt>
      <trkpt lat="43.50271" lon="6.3968">
        <ele>204</ele>
        <time>2022-09-09T13:19:28Z</time>
      </trkpt>
      <trkpt lat="43.5027" lon="6.39686">
        <ele>204</ele>
        <time>2022-09-09T13:19:34Z</time>
      </trkpt>
      <trkpt lat="43.50269" lon="6.39691">
        <ele>204</ele>
        <time>2022-09-09T13:19:39Z</time>
      </trkpt>
      <trkpt lat="43.50267" lon="6.39701">
        <ele>204</ele>
        <time>2022-09-09T13:19:49Z</time>
      </trkpt>
      <trkpt lat="43.50266" lon="6.39707">
        <ele>204</ele>
        <time>2022-09-09T13:19:55Z</time>
      </trkpt>
      <trkpt lat="43.50266" lon="6.39712">
        <ele>203</ele>
        <time>2022-09-09T13:20:02Z</time>
      </trkpt>
      <trkpt lat="43.50268" lon="6.39717">
        <ele>202</ele>
        <time>2022-09-09T13:20:11Z</time>
      </trkpt>
      <trkpt lat="43.50268" lon="6.39721">
        <ele>201</ele>
        <time>2022-09-09T13:20:20Z</time>
      </trkpt>
      <trkpt lat="43.50271" lon="6.39725">
        <ele>202</ele>
        <time>2022-09-09T13:20:31Z</time>
      </trkpt>
      <trkpt lat="43.50274" lon="6.39725">
        <ele>203</ele>
        <time>2022-09-09T13:20:39Z</time>
      </trkpt>
      <trkpt lat="43.50278" lon="6.39728">
        <ele>202</ele>
        <time>2022-09-09T13:20:46Z</time>
      </trkpt>
      <trkpt lat="43.5028" lon="6.39732">
        <ele>202</ele>
        <time>2022-09-09T13:20:54Z</time>
      </trkpt>
      <trkpt lat="43.50283" lon="6.39735">
        <ele>201</ele>
        <time>2022-09-09T13:21:04Z</time>
      </trkpt>
      <trkpt lat="43.50286" lon="6.39738">
        <ele>201</ele>
        <time>2022-09-09T13:21:14Z</time>
      </trkpt>
      <trkpt lat="43.5029" lon="6.39739">
        <ele>201</ele>
        <time>2022-09-09T13:21:18Z</time>
      </trkpt>
      <trkpt lat="43.50292" lon="6.39742">
        <ele>201</ele>
        <time>2022-09-09T13:21:25Z</time>
      </trkpt>
      <trkpt lat="43.50293" lon="6.39747">
        <ele>202</ele>
        <time>2022-09-09T13:22:06Z</time>
      </trkpt>
      <trkpt lat="43.50292" lon="6.39745">
        <ele>204</ele>
        <time>2022-09-09T13:24:16Z</time>
      </trkpt>
      <trkpt lat="43.50294" lon="6.39742">
        <ele>204</ele>
        <time>2022-09-09T13:24:38Z</time>
      </trkpt>
      <trkpt lat="43.50295" lon="6.39739">
        <ele>204</ele>
        <time>2022-09-09T13:24:49Z</time>
      </trkpt>
      <trkpt lat="43.50292" lon="6.39737">
        <ele>204</ele>
        <time>2022-09-09T13:24:53Z</time>
      </trkpt>
      <trkpt lat="43.50286" lon="6.39736">
        <ele>204</ele>
        <time>2022-09-09T13:24:58Z</time>
      </trkpt>
      <trkpt lat="43.50284" lon="6.39733">
        <ele>205</ele>
        <time>2022-09-09T13:25:01Z</time>
      </trkpt>
      <trkpt lat="43.50283" lon="6.3973">
        <ele>204</ele>
        <time>2022-09-09T13:25:03Z</time>
      </trkpt>
      <trkpt lat="43.50281" lon="6.39727">
        <ele>204</ele>
        <time>2022-09-09T13:25:05Z</time>
      </trkpt>
      <trkpt lat="43.50278" lon="6.39725">
        <ele>204</ele>
        <time>2022-09-09T13:25:08Z</time>
      </trkpt>
      <trkpt lat="43.50276" lon="6.39724">
        <ele>204</ele>
        <time>2022-09-09T13:25:10Z</time>
      </trkpt>
      <trkpt lat="43.50274" lon="6.39725">
        <ele>205</ele>
        <time>2022-09-09T13:25:13Z</time>
      </trkpt>
      <trkpt lat="43.50272" lon="6.39731">
        <ele>205</ele>
        <time>2022-09-09T13:26:12Z</time>
      </trkpt>
      <trkpt lat="43.50268" lon="6.39733">
        <ele>205</ele>
        <time>2022-09-09T13:26:17Z</time>
      </trkpt>
      <trkpt lat="43.50266" lon="6.39738">
        <ele>204</ele>
        <time>2022-09-09T13:26:22Z</time>
      </trkpt>
      <trkpt lat="43.50265" lon="6.39742">
        <ele>205</ele>
        <time>2022-09-09T13:26:31Z</time>
      </trkpt>
      <trkpt lat="43.5026" lon="6.3975">
        <ele>206</ele>
        <time>2022-09-09T13:26:47Z</time>
      </trkpt>
      <trkpt lat="43.5026" lon="6.39755">
        <ele>206</ele>
        <time>2022-09-09T13:26:55Z</time>
      </trkpt>
      <trkpt lat="43.50254" lon="6.39761">
        <ele>205</ele>
        <time>2022-09-09T13:27:09Z</time>
      </trkpt>
      <trkpt lat="43.50253" lon="6.39766">
        <ele>206</ele>
        <time>2022-09-09T13:27:17Z</time>
      </trkpt>
      <trkpt lat="43.50252" lon="6.39773">
        <ele>203</ele>
        <time>2022-09-09T13:27:37Z</time>
      </trkpt>
      <trkpt lat="43.50253" lon="6.39778">
        <ele>202</ele>
        <time>2022-09-09T13:27:41Z</time>
      </trkpt>
      <trkpt lat="43.50255" lon="6.39786">
        <ele>200</ele>
        <time>2022-09-09T13:27:53Z</time>
      </trkpt>
      <trkpt lat="43.50255" lon="6.3979">
        <ele>199</ele>
        <time>2022-09-09T13:28:13Z</time>
      </trkpt>
      <trkpt lat="43.50253" lon="6.39793">
        <ele>198</ele>
        <time>2022-09-09T13:28:34Z</time>
      </trkpt>
      <trkpt lat="43.5025" lon="6.39797">
        <ele>197</ele>
        <time>2022-09-09T13:29:22Z</time>
      </trkpt>
      <trkpt lat="43.5025" lon="6.39801">
        <ele>195</ele>
        <time>2022-09-09T13:29:31Z</time>
      </trkpt>
      <trkpt lat="43.50247" lon="6.39802">
        <ele>194</ele>
        <time>2022-09-09T13:29:49Z</time>
      </trkpt>
      <trkpt lat="43.50244" lon="6.39804">
        <ele>193</ele>
        <time>2022-09-09T13:29:54Z</time>
      </trkpt>
      <trkpt lat="43.50242" lon="6.39809">
        <ele>194</ele>
        <time>2022-09-09T13:30:09Z</time>
      </trkpt>
      <trkpt lat="43.50233" lon="6.39817">
        <ele>192</ele>
        <time>2022-09-09T13:30:32Z</time>
      </trkpt>
      <trkpt lat="43.50232" lon="6.3982">
        <ele>190</ele>
        <time>2022-09-09T13:30:38Z</time>
      </trkpt>
      <trkpt lat="43.50232" lon="6.39825">
        <ele>187</ele>
        <time>2022-09-09T13:30:47Z</time>
      </trkpt>
      <trkpt lat="43.50233" lon="6.3983">
        <ele>187</ele>
        <time>2022-09-09T13:31:07Z</time>
      </trkpt>
      <trkpt lat="43.50231" lon="6.39833">
        <ele>187</ele>
        <time>2022-09-09T13:31:20Z</time>
      </trkpt>
      <trkpt lat="43.50231" lon="6.39838">
        <ele>187</ele>
        <time>2022-09-09T13:31:33Z</time>
      </trkpt>
      <trkpt lat="43.50228" lon="6.39845">
        <ele>187</ele>
        <time>2022-09-09T13:31:47Z</time>
      </trkpt>
      <trkpt lat="43.50223" lon="6.39856">
        <ele>185</ele>
        <time>2022-09-09T13:32:04Z</time>
      </trkpt>
      <trkpt lat="43.50221" lon="6.39868">
        <ele>184</ele>
        <time>2022-09-09T13:32:25Z</time>
      </trkpt>
      <trkpt lat="43.50218" lon="6.39875">
        <ele>182</ele>
        <time>2022-09-09T13:32:41Z</time>
      </trkpt>
      <trkpt lat="43.50218" lon="6.3988">
        <ele>180</ele>
        <time>2022-09-09T13:32:54Z</time>
      </trkpt>
      <trkpt lat="43.50218" lon="6.39883">
        <ele>178</ele>
        <time>2022-09-09T13:33:01Z</time>
      </trkpt>
      <trkpt lat="43.5022" lon="6.39886">
        <ele>177</ele>
        <time>2022-09-09T13:33:08Z</time>
      </trkpt>
      <trkpt lat="43.50227" lon="6.39892">
        <ele>174</ele>
        <time>2022-09-09T13:33:35Z</time>
      </trkpt>
      <trkpt lat="43.50229" lon="6.39895">
        <ele>173</ele>
        <time>2022-09-09T13:33:40Z</time>
      </trkpt>
      <trkpt lat="43.50231" lon="6.39898">
        <ele>174</ele>
        <time>2022-09-09T13:33:48Z</time>
      </trkpt>
      <trkpt lat="43.50232" lon="6.39903">
        <ele>173</ele>
        <time>2022-09-09T13:34:00Z</time>
      </trkpt>
      <trkpt lat="43.50235" lon="6.39906">
        <ele>172</ele>
        <time>2022-09-09T13:34:09Z</time>
      </trkpt>
      <trkpt lat="43.50238" lon="6.39906">
        <ele>170</ele>
        <time>2022-09-09T13:34:15Z</time>
      </trkpt>
      <trkpt lat="43.50241" lon="6.39907">
        <ele>169</ele>
        <time>2022-09-09T13:34:18Z</time>
      </trkpt>
      <trkpt lat="43.50246" lon="6.39907">
        <ele>166</ele>
        <time>2022-09-09T13:34:25Z</time>
      </trkpt>
      <trkpt lat="43.50249" lon="6.39909">
        <ele>165</ele>
        <time>2022-09-09T13:34:29Z</time>
      </trkpt>
      <trkpt lat="43.5025" lon="6.39915">
        <ele>163</ele>
        <time>2022-09-09T13:34:37Z</time>
      </trkpt>
      <trkpt lat="43.50248" lon="6.39918">
        <ele>162</ele>
        <time>2022-09-09T13:34:42Z</time>
      </trkpt>
      <trkpt lat="43.50249" lon="6.39922">
        <ele>161</ele>
        <time>2022-09-09T13:34:48Z</time>
      </trkpt>
      <trkpt lat="43.50252" lon="6.3993">
        <ele>157</ele>
        <time>2022-09-09T13:35:05Z</time>
      </trkpt>
      <trkpt lat="43.50253" lon="6.39936">
        <ele>156</ele>
        <time>2022-09-09T13:35:14Z</time>
      </trkpt>
      <trkpt lat="43.50256" lon="6.39938">
        <ele>156</ele>
        <time>2022-09-09T13:35:20Z</time>
      </trkpt>
      <trkpt lat="43.50262" lon="6.39941">
        <ele>155</ele>
        <time>2022-09-09T13:35:28Z</time>
      </trkpt>
      <trkpt lat="43.50263" lon="6.39945">
        <ele>155</ele>
        <time>2022-09-09T13:35:33Z</time>
      </trkpt>
      <trkpt lat="43.50269" lon="6.39955">
        <ele>153</ele>
        <time>2022-09-09T13:35:53Z</time>
      </trkpt>
      <trkpt lat="43.5027" lon="6.39964">
        <ele>153</ele>
        <time>2022-09-09T13:36:04Z</time>
      </trkpt>
      <trkpt lat="43.5027" lon="6.39968">
        <ele>153</ele>
        <time>2022-09-09T13:36:11Z</time>
      </trkpt>
      <trkpt lat="43.50269" lon="6.39972">
        <ele>152</ele>
        <time>2022-09-09T13:36:15Z</time>
      </trkpt>
      <trkpt lat="43.5027" lon="6.39978">
        <ele>152</ele>
        <time>2022-09-09T13:36:22Z</time>
      </trkpt>
      <trkpt lat="43.50268" lon="6.39981">
        <ele>150</ele>
        <time>2022-09-09T13:36:27Z</time>
      </trkpt>
      <trkpt lat="43.50267" lon="6.39985">
        <ele>149</ele>
        <time>2022-09-09T13:36:36Z</time>
      </trkpt>
      <trkpt lat="43.50268" lon="6.39989">
        <ele>148</ele>
        <time>2022-09-09T13:36:45Z</time>
      </trkpt>
      <trkpt lat="43.50266" lon="6.39997">
        <ele>151</ele>
        <time>2022-09-09T13:37:23Z</time>
      </trkpt>
      <trkpt lat="43.50267" lon="6.39992">
        <ele>149</ele>
        <time>2022-09-09T13:37:52Z</time>
      </trkpt>
      <trkpt lat="43.50267" lon="6.39993">
        <ele>149</ele>
        <time>2022-09-09T13:40:45Z</time>
      </trkpt>
      <trkpt lat="43.50269" lon="6.39996">
        <ele>149</ele>
        <time>2022-09-09T13:40:50Z</time>
      </trkpt>
      <trkpt lat="43.50269" lon="6.39996">
        <ele>150</ele>
        <time>2022-09-09T13:41:20Z</time>
      </trkpt>
      <trkpt lat="43.50272" lon="6.39996">
        <ele>148</ele>
        <time>2022-09-09T13:42:47Z</time>
      </trkpt>
      <trkpt lat="43.50274" lon="6.39998">
        <ele>145</ele>
        <time>2022-09-09T13:42:58Z</time>
      </trkpt>
      <trkpt lat="43.50277" lon="6.40001">
        <ele>144</ele>
        <time>2022-09-09T13:43:03Z</time>
      </trkpt>
      <trkpt lat="43.50282" lon="6.40005">
        <ele>145</ele>
        <time>2022-09-09T13:43:11Z</time>
      </trkpt>
      <trkpt lat="43.50284" lon="6.40007">
        <ele>144</ele>
        <time>2022-09-09T13:43:15Z</time>
      </trkpt>
      <trkpt lat="43.50286" lon="6.4001">
        <ele>145</ele>
        <time>2022-09-09T13:43:20Z</time>
      </trkpt>
      <trkpt lat="43.50288" lon="6.40012">
        <ele>145</ele>
        <time>2022-09-09T13:43:24Z</time>
      </trkpt>
      <trkpt lat="43.50298" lon="6.40018">
        <ele>145</ele>
        <time>2022-09-09T13:43:36Z</time>
      </trkpt>
      <trkpt lat="43.50301" lon="6.40021">
        <ele>144</ele>
        <time>2022-09-09T13:43:40Z</time>
      </trkpt>
      <trkpt lat="43.50308" lon="6.4003">
        <ele>144</ele>
        <time>2022-09-09T13:43:51Z</time>
      </trkpt>
      <trkpt lat="43.50309" lon="6.40034">
        <ele>143</ele>
        <time>2022-09-09T13:43:55Z</time>
      </trkpt>
      <trkpt lat="43.50308" lon="6.40039">
        <ele>143</ele>
        <time>2022-09-09T13:43:59Z</time>
      </trkpt>
      <trkpt lat="43.50307" lon="6.40042">
        <ele>143</ele>
        <time>2022-09-09T13:44:02Z</time>
      </trkpt>
      <trkpt lat="43.50306" lon="6.40046">
        <ele>142</ele>
        <time>2022-09-09T13:44:05Z</time>
      </trkpt>
      <trkpt lat="43.50299" lon="6.40058">
        <ele>141</ele>
        <time>2022-09-09T13:44:17Z</time>
      </trkpt>
      <trkpt lat="43.50296" lon="6.40063">
        <ele>141</ele>
        <time>2022-09-09T13:44:22Z</time>
      </trkpt>
      <trkpt lat="43.50293" lon="6.40066">
        <ele>140</ele>
        <time>2022-09-09T13:44:26Z</time>
      </trkpt>
      <trkpt lat="43.50291" lon="6.40071">
        <ele>140</ele>
        <time>2022-09-09T13:44:30Z</time>
      </trkpt>
      <trkpt lat="43.50291" lon="6.40076">
        <ele>140</ele>
        <time>2022-09-09T13:44:34Z</time>
      </trkpt>
      <trkpt lat="43.50284" lon="6.40087">
        <ele>143</ele>
        <time>2022-09-09T13:46:07Z</time>
      </trkpt>
      <trkpt lat="43.50285" lon="6.4009">
        <ele>144</ele>
        <time>2022-09-09T13:46:21Z</time>
      </trkpt>
      <trkpt lat="43.50287" lon="6.40086">
        <ele>144</ele>
        <time>2022-09-09T13:46:49Z</time>
      </trkpt>
      <trkpt lat="43.50286" lon="6.40086">
        <ele>145</ele>
        <time>2022-09-09T13:47:14Z</time>
      </trkpt>
      <trkpt lat="43.50284" lon="6.40089">
        <ele>145</ele>
        <time>2022-09-09T13:47:18Z</time>
      </trkpt>
      <trkpt lat="43.50284" lon="6.40089">
        <ele>145</ele>
        <time>2022-09-09T13:47:45Z</time>
      </trkpt>
      <trkpt lat="43.50288" lon="6.40088">
        <ele>145</ele>
        <time>2022-09-09T13:49:34Z</time>
      </trkpt>
      <trkpt lat="43.50291" lon="6.40087">
        <ele>144</ele>
        <time>2022-09-09T13:49:45Z</time>
      </trkpt>
      <trkpt lat="43.50291" lon="6.40083">
        <ele>147</ele>
        <time>2022-09-09T13:54:45Z</time>
      </trkpt>
      <trkpt lat="43.50294" lon="6.4008">
        <ele>147</ele>
        <time>2022-09-09T13:54:51Z</time>
      </trkpt>
      <trkpt lat="43.50294" lon="6.40075">
        <ele>147</ele>
        <time>2022-09-09T13:55:04Z</time>
      </trkpt>
      <trkpt lat="43.50295" lon="6.40072">
        <ele>147</ele>
        <time>2022-09-09T13:55:08Z</time>
      </trkpt>
      <trkpt lat="43.50297" lon="6.40069">
        <ele>146</ele>
        <time>2022-09-09T13:55:15Z</time>
      </trkpt>
      <trkpt lat="43.50299" lon="6.40064">
        <ele>145</ele>
        <time>2022-09-09T13:55:20Z</time>
      </trkpt>
      <trkpt lat="43.50307" lon="6.40049">
        <ele>145</ele>
        <time>2022-09-09T13:55:38Z</time>
      </trkpt>
      <trkpt lat="43.5031" lon="6.40039">
        <ele>145</ele>
        <time>2022-09-09T13:55:46Z</time>
      </trkpt>
      <trkpt lat="43.50311" lon="6.40034">
        <ele>144</ele>
        <time>2022-09-09T13:55:50Z</time>
      </trkpt>
      <trkpt lat="43.50309" lon="6.40029">
        <ele>144</ele>
        <time>2022-09-09T13:55:54Z</time>
      </trkpt>
      <trkpt lat="43.50307" lon="6.40026">
        <ele>145</ele>
        <time>2022-09-09T13:55:57Z</time>
      </trkpt>
      <trkpt lat="43.50304" lon="6.40024">
        <ele>145</ele>
        <time>2022-09-09T13:56:01Z</time>
      </trkpt>
      <trkpt lat="43.50284" lon="6.40003">
        <ele>147</ele>
        <time>2022-09-09T13:56:27Z</time>
      </trkpt>
      <trkpt lat="43.50277" lon="6.39999">
        <ele>147</ele>
        <time>2022-09-09T13:56:35Z</time>
      </trkpt>
      <trkpt lat="43.50274" lon="6.4">
        <ele>147</ele>
        <time>2022-09-09T13:56:40Z</time>
      </trkpt>
      <trkpt lat="43.50267" lon="6.39997">
        <ele>147</ele>
        <time>2022-09-09T13:56:53Z</time>
      </trkpt>
      <trkpt lat="43.50263" lon="6.39998">
        <ele>148</ele>
        <time>2022-09-09T13:57:03Z</time>
      </trkpt>
      <trkpt lat="43.50249" lon="6.40005">
        <ele>149</ele>
        <time>2022-09-09T13:57:22Z</time>
      </trkpt>
      <trkpt lat="43.50246" lon="6.40004">
        <ele>148</ele>
        <time>2022-09-09T13:57:26Z</time>
      </trkpt>
      <trkpt lat="43.50243" lon="6.40005">
        <ele>147</ele>
        <time>2022-09-09T13:57:32Z</time>
      </trkpt>
      <trkpt lat="43.5023" lon="6.40001">
        <ele>150</ele>
        <time>2022-09-09T13:57:48Z</time>
      </trkpt>
      <trkpt lat="43.50228" lon="6.40001">
        <ele>150</ele>
        <time>2022-09-09T13:57:50Z</time>
      </trkpt>
      <trkpt lat="43.50226" lon="6.39999">
        <ele>150</ele>
        <time>2022-09-09T13:57:52Z</time>
      </trkpt>
      <trkpt lat="43.50224" lon="6.39997">
        <ele>151</ele>
        <time>2022-09-09T13:57:54Z</time>
      </trkpt>
      <trkpt lat="43.50221" lon="6.39997">
        <ele>151</ele>
        <time>2022-09-09T13:57:58Z</time>
      </trkpt>
      <trkpt lat="43.50219" lon="6.39997">
        <ele>151</ele>
        <time>2022-09-09T13:58:02Z</time>
      </trkpt>
      <trkpt lat="43.50188" lon="6.39983">
        <ele>149</ele>
        <time>2022-09-09T13:58:29Z</time>
      </trkpt>
      <trkpt lat="43.50185" lon="6.39982">
        <ele>149</ele>
        <time>2022-09-09T13:58:31Z</time>
      </trkpt>
      <trkpt lat="43.50176" lon="6.39972">
        <ele>150</ele>
        <time>2022-09-09T13:58:42Z</time>
      </trkpt>
      <trkpt lat="43.50173" lon="6.39969">
        <ele>150</ele>
        <time>2022-09-09T13:58:45Z</time>
      </trkpt>
      <trkpt lat="43.5017" lon="6.39967">
        <ele>150</ele>
        <time>2022-09-09T13:58:48Z</time>
      </trkpt>
      <trkpt lat="43.50158" lon="6.3995">
        <ele>150</ele>
        <time>2022-09-09T13:59:03Z</time>
      </trkpt>
      <trkpt lat="43.50157" lon="6.39945">
        <ele>150</ele>
        <time>2022-09-09T13:59:06Z</time>
      </trkpt>
      <trkpt lat="43.50157" lon="6.3994">
        <ele>150</ele>
        <time>2022-09-09T13:59:10Z</time>
      </trkpt>
      <trkpt lat="43.50152" lon="6.39926">
        <ele>152</ele>
        <time>2022-09-09T13:59:20Z</time>
      </trkpt>
      <trkpt lat="43.50151" lon="6.39921">
        <ele>152</ele>
        <time>2022-09-09T13:59:24Z</time>
      </trkpt>
      <trkpt lat="43.5015" lon="6.39917">
        <ele>152</ele>
        <time>2022-09-09T13:59:27Z</time>
      </trkpt>
      <trkpt lat="43.50148" lon="6.39908">
        <ele>154</ele>
        <time>2022-09-09T13:59:34Z</time>
      </trkpt>
      <trkpt lat="43.50149" lon="6.39904">
        <ele>156</ele>
        <time>2022-09-09T13:59:39Z</time>
      </trkpt>
      <trkpt lat="43.50148" lon="6.39866">
        <ele>158</ele>
        <time>2022-09-09T14:00:03Z</time>
      </trkpt>
      <trkpt lat="43.50147" lon="6.39853">
        <ele>157</ele>
        <time>2022-09-09T14:00:13Z</time>
      </trkpt>
      <trkpt lat="43.50147" lon="6.39848">
        <ele>157</ele>
        <time>2022-09-09T14:00:16Z</time>
      </trkpt>
      <trkpt lat="43.50146" lon="6.39838">
        <ele>156</ele>
        <time>2022-09-09T14:00:23Z</time>
      </trkpt>
      <trkpt lat="43.50146" lon="6.39832">
        <ele>156</ele>
        <time>2022-09-09T14:00:27Z</time>
      </trkpt>
      <trkpt lat="43.50151" lon="6.39815">
        <ele>156</ele>
        <time>2022-09-09T14:00:40Z</time>
      </trkpt>
      <trkpt lat="43.50151" lon="6.39809">
        <ele>156</ele>
        <time>2022-09-09T14:00:44Z</time>
      </trkpt>
      <trkpt lat="43.5015" lon="6.39791">
        <ele>158</ele>
        <time>2022-09-09T14:00:59Z</time>
      </trkpt>
      <trkpt lat="43.5015" lon="6.39786">
        <ele>159</ele>
        <time>2022-09-09T14:01:02Z</time>
      </trkpt>
      <trkpt lat="43.50151" lon="6.39781">
        <ele>158</ele>
        <time>2022-09-09T14:01:05Z</time>
      </trkpt>
      <trkpt lat="43.5015" lon="6.39759">
        <ele>160</ele>
        <time>2022-09-09T14:01:24Z</time>
      </trkpt>
      <trkpt lat="43.50152" lon="6.3975">
        <ele>162</ele>
        <time>2022-09-09T14:01:31Z</time>
      </trkpt>
      <trkpt lat="43.50149" lon="6.39731">
        <ele>164</ele>
        <time>2022-09-09T14:01:47Z</time>
      </trkpt>
      <trkpt lat="43.50151" lon="6.39722">
        <ele>164</ele>
        <time>2022-09-09T14:01:53Z</time>
      </trkpt>
      <trkpt lat="43.50153" lon="6.39714">
        <ele>164</ele>
        <time>2022-09-09T14:01:59Z</time>
      </trkpt>
      <trkpt lat="43.50153" lon="6.3971">
        <ele>163</ele>
        <time>2022-09-09T14:02:02Z</time>
      </trkpt>
      <trkpt lat="43.50154" lon="6.39706">
        <ele>164</ele>
        <time>2022-09-09T14:02:06Z</time>
      </trkpt>
      <trkpt lat="43.50153" lon="6.39702">
        <ele>165</ele>
        <time>2022-09-09T14:02:09Z</time>
      </trkpt>
      <trkpt lat="43.50154" lon="6.39692">
        <ele>164</ele>
        <time>2022-09-09T14:02:17Z</time>
      </trkpt>
      <trkpt lat="43.50156" lon="6.39684">
        <ele>164</ele>
        <time>2022-09-09T14:02:23Z</time>
      </trkpt>
      <trkpt lat="43.50157" lon="6.3968">
        <ele>164</ele>
        <time>2022-09-09T14:02:26Z</time>
      </trkpt>
      <trkpt lat="43.50157" lon="6.39676">
        <ele>163</ele>
        <time>2022-09-09T14:02:29Z</time>
      </trkpt>
      <trkpt lat="43.50156" lon="6.39655">
        <ele>167</ele>
        <time>2022-09-09T14:02:47Z</time>
      </trkpt>
      <trkpt lat="43.50157" lon="6.3965">
        <ele>167</ele>
        <time>2022-09-09T14:02:51Z</time>
      </trkpt>
      <trkpt lat="43.50156" lon="6.39646">
        <ele>168</ele>
        <time>2022-09-09T14:02:55Z</time>
      </trkpt>
      <trkpt lat="43.50153" lon="6.39632">
        <ele>168</ele>
        <time>2022-09-09T14:03:05Z</time>
      </trkpt>
      <trkpt lat="43.50151" lon="6.39624">
        <ele>169</ele>
        <time>2022-09-09T14:03:12Z</time>
      </trkpt>
      <trkpt lat="43.5015" lon="6.39621">
        <ele>169</ele>
        <time>2022-09-09T14:03:15Z</time>
      </trkpt>
      <trkpt lat="43.5015" lon="6.39616">
        <ele>170</ele>
        <time>2022-09-09T14:03:19Z</time>
      </trkpt>
      <trkpt lat="43.50148" lon="6.39602">
        <ele>170</ele>
        <time>2022-09-09T14:03:29Z</time>
      </trkpt>
      <trkpt lat="43.50147" lon="6.39599">
        <ele>170</ele>
        <time>2022-09-09T14:03:32Z</time>
      </trkpt>
      <trkpt lat="43.50145" lon="6.39577">
        <ele>172</ele>
        <time>2022-09-09T14:03:49Z</time>
      </trkpt>
      <trkpt lat="43.50146" lon="6.39573">
        <ele>172</ele>
        <time>2022-09-09T14:03:53Z</time>
      </trkpt>
      <trkpt lat="43.50145" lon="6.39569">
        <ele>172</ele>
        <time>2022-09-09T14:03:56Z</time>
      </trkpt>
      <trkpt lat="43.50146" lon="6.39564">
        <ele>173</ele>
        <time>2022-09-09T14:04:01Z</time>
      </trkpt>
      <trkpt lat="43.50143" lon="6.39547">
        <ele>173</ele>
        <time>2022-09-09T14:04:12Z</time>
      </trkpt>
      <trkpt lat="43.50145" lon="6.39543">
        <ele>174</ele>
        <time>2022-09-09T14:04:15Z</time>
      </trkpt>
      <trkpt lat="43.50145" lon="6.39528">
        <ele>172</ele>
        <time>2022-09-09T14:04:26Z</time>
      </trkpt>
      <trkpt lat="43.50145" lon="6.39523">
        <ele>172</ele>
        <time>2022-09-09T14:04:29Z</time>
      </trkpt>
      <trkpt lat="43.50144" lon="6.39513">
        <ele>172</ele>
        <time>2022-09-09T14:04:37Z</time>
      </trkpt>
      <trkpt lat="43.50146" lon="6.39509">
        <ele>173</ele>
        <time>2022-09-09T14:04:40Z</time>
      </trkpt>
      <trkpt lat="43.50145" lon="6.39497">
        <ele>173</ele>
        <time>2022-09-09T14:04:49Z</time>
      </trkpt>
      <trkpt lat="43.50145" lon="6.39492">
        <ele>174</ele>
        <time>2022-09-09T14:04:52Z</time>
      </trkpt>
      <trkpt lat="43.50143" lon="6.39488">
        <ele>173</ele>
        <time>2022-09-09T14:04:55Z</time>
      </trkpt>
      <trkpt lat="43.50142" lon="6.3948">
        <ele>173</ele>
        <time>2022-09-09T14:05:01Z</time>
      </trkpt>
      <trkpt lat="43.50141" lon="6.39476">
        <ele>173</ele>
        <time>2022-09-09T14:05:04Z</time>
      </trkpt>
      <trkpt lat="43.50141" lon="6.39471">
        <ele>173</ele>
        <time>2022-09-09T14:05:08Z</time>
      </trkpt>
      <trkpt lat="43.5014" lon="6.39466">
        <ele>173</ele>
        <time>2022-09-09T14:05:11Z</time>
      </trkpt>
      <trkpt lat="43.50131" lon="6.39442">
        <ele>176</ele>
        <time>2022-09-09T14:05:32Z</time>
      </trkpt>
      <trkpt lat="43.50126" lon="6.39417">
        <ele>179</ele>
        <time>2022-09-09T14:05:53Z</time>
      </trkpt>
      <trkpt lat="43.5012" lon="6.39402">
        <ele>179</ele>
        <time>2022-09-09T14:06:06Z</time>
      </trkpt>
      <trkpt lat="43.50115" lon="6.39385">
        <ele>181</ele>
        <time>2022-09-09T14:06:21Z</time>
      </trkpt>
      <trkpt lat="43.50114" lon="6.39376">
        <ele>181</ele>
        <time>2022-09-09T14:06:28Z</time>
      </trkpt>
      <trkpt lat="43.50114" lon="6.39373">
        <ele>180</ele>
        <time>2022-09-09T14:06:33Z</time>
      </trkpt>
      <trkpt lat="43.50116" lon="6.39368">
        <ele>181</ele>
        <time>2022-09-09T14:06:42Z</time>
      </trkpt>
      <trkpt lat="43.50116" lon="6.39364">
        <ele>182</ele>
        <time>2022-09-09T14:06:45Z</time>
      </trkpt>
      <trkpt lat="43.50118" lon="6.39349">
        <ele>181</ele>
        <time>2022-09-09T14:06:56Z</time>
      </trkpt>
      <trkpt lat="43.50121" lon="6.39338">
        <ele>182</ele>
        <time>2022-09-09T14:07:04Z</time>
      </trkpt>
      <trkpt lat="43.50121" lon="6.39334">
        <ele>182</ele>
        <time>2022-09-09T14:07:07Z</time>
      </trkpt>
      <trkpt lat="43.50122" lon="6.3933">
        <ele>184</ele>
        <time>2022-09-09T14:07:11Z</time>
      </trkpt>
      <trkpt lat="43.50124" lon="6.39325">
        <ele>184</ele>
        <time>2022-09-09T14:07:15Z</time>
      </trkpt>
      <trkpt lat="43.5013" lon="6.39314">
        <ele>185</ele>
        <time>2022-09-09T14:07:25Z</time>
      </trkpt>
      <trkpt lat="43.50133" lon="6.39309">
        <ele>185</ele>
        <time>2022-09-09T14:07:29Z</time>
      </trkpt>
      <trkpt lat="43.50138" lon="6.39297">
        <ele>184</ele>
        <time>2022-09-09T14:07:38Z</time>
      </trkpt>
      <trkpt lat="43.50141" lon="6.3929">
        <ele>183</ele>
        <time>2022-09-09T14:07:45Z</time>
      </trkpt>
      <trkpt lat="43.50141" lon="6.39288">
        <ele>184</ele>
        <time>2022-09-09T14:07:47Z</time>
      </trkpt>
      <trkpt lat="43.50145" lon="6.39282">
        <ele>183</ele>
        <time>2022-09-09T14:07:53Z</time>
      </trkpt>
      <trkpt lat="43.50146" lon="6.39276">
        <ele>182</ele>
        <time>2022-09-09T14:07:58Z</time>
      </trkpt>
      <trkpt lat="43.50148" lon="6.39269">
        <ele>183</ele>
        <time>2022-09-09T14:08:05Z</time>
      </trkpt>
      <trkpt lat="43.50151" lon="6.39265">
        <ele>183</ele>
        <time>2022-09-09T14:08:08Z</time>
      </trkpt>
      <trkpt lat="43.50152" lon="6.3926">
        <ele>184</ele>
        <time>2022-09-09T14:08:12Z</time>
      </trkpt>
      <trkpt lat="43.50153" lon="6.39258">
        <ele>183</ele>
        <time>2022-09-09T14:08:14Z</time>
      </trkpt>
      <trkpt lat="43.50156" lon="6.3925">
        <ele>183</ele>
        <time>2022-09-09T14:08:20Z</time>
      </trkpt>
      <trkpt lat="43.50158" lon="6.3924">
        <ele>183</ele>
        <time>2022-09-09T14:08:27Z</time>
      </trkpt>
      <trkpt lat="43.50157" lon="6.39231">
        <ele>183</ele>
        <time>2022-09-09T14:08:33Z</time>
      </trkpt>
      <trkpt lat="43.50159" lon="6.39227">
        <ele>184</ele>
        <time>2022-09-09T14:08:37Z</time>
      </trkpt>
      <trkpt lat="43.50159" lon="6.39222">
        <ele>184</ele>
        <time>2022-09-09T14:08:41Z</time>
      </trkpt>
      <trkpt lat="43.5016" lon="6.39197">
        <ele>182</ele>
        <time>2022-09-09T14:08:59Z</time>
      </trkpt>
      <trkpt lat="43.5016" lon="6.39191">
        <ele>182</ele>
        <time>2022-09-09T14:09:04Z</time>
      </trkpt>
      <trkpt lat="43.50161" lon="6.39187">
        <ele>183</ele>
        <time>2022-09-09T14:09:08Z</time>
      </trkpt>
      <trkpt lat="43.50161" lon="6.39182">
        <ele>184</ele>
        <time>2022-09-09T14:09:12Z</time>
      </trkpt>
      <trkpt lat="43.50162" lon="6.39178">
        <ele>184</ele>
        <time>2022-09-09T14:09:25Z</time>
      </trkpt>
      <trkpt lat="43.50162" lon="6.39174">
        <ele>183</ele>
        <time>2022-09-09T14:09:29Z</time>
      </trkpt>
      <trkpt lat="43.50162" lon="6.3917">
        <ele>184</ele>
        <time>2022-09-09T14:09:32Z</time>
      </trkpt>
      <trkpt lat="43.50163" lon="6.39162">
        <ele>184</ele>
        <time>2022-09-09T14:09:38Z</time>
      </trkpt>
      <trkpt lat="43.50165" lon="6.39154">
        <ele>184</ele>
        <time>2022-09-09T14:09:45Z</time>
      </trkpt>
      <trkpt lat="43.50169" lon="6.39142">
        <ele>186</ele>
        <time>2022-09-09T14:09:53Z</time>
      </trkpt>
      <trkpt lat="43.50169" lon="6.39136">
        <ele>186</ele>
        <time>2022-09-09T14:09:58Z</time>
      </trkpt>
      <trkpt lat="43.5017" lon="6.39131">
        <ele>187</ele>
        <time>2022-09-09T14:10:01Z</time>
      </trkpt>
      <trkpt lat="43.50171" lon="6.39127">
        <ele>187</ele>
        <time>2022-09-09T14:10:05Z</time>
      </trkpt>
      <trkpt lat="43.50173" lon="6.39121">
        <ele>188</ele>
        <time>2022-09-09T14:10:11Z</time>
      </trkpt>
      <trkpt lat="43.50174" lon="6.39117">
        <ele>188</ele>
        <time>2022-09-09T14:10:14Z</time>
      </trkpt>
      <trkpt lat="43.50174" lon="6.39113">
        <ele>188</ele>
        <time>2022-09-09T14:10:16Z</time>
      </trkpt>
      <trkpt lat="43.50174" lon="6.39103">
        <ele>189</ele>
        <time>2022-09-09T14:10:24Z</time>
      </trkpt>
      <trkpt lat="43.50175" lon="6.39098">
        <ele>188</ele>
        <time>2022-09-09T14:10:28Z</time>
      </trkpt>
      <trkpt lat="43.50177" lon="6.39087">
        <ele>188</ele>
        <time>2022-09-09T14:10:36Z</time>
      </trkpt>
      <trkpt lat="43.5018" lon="6.39072">
        <ele>186</ele>
        <time>2022-09-09T14:10:48Z</time>
      </trkpt>
      <trkpt lat="43.5018" lon="6.39069">
        <ele>187</ele>
        <time>2022-09-09T14:10:54Z</time>
      </trkpt>
      <trkpt lat="43.5018" lon="6.39067">
        <ele>188</ele>
        <time>2022-09-09T14:11:33Z</time>
      </trkpt>
      <trkpt lat="43.5018" lon="6.39063">
        <ele>188</ele>
        <time>2022-09-09T14:15:57Z</time>
      </trkpt>
      <trkpt lat="43.50182" lon="6.39061">
        <ele>187</ele>
        <time>2022-09-09T14:19:27Z</time>
      </trkpt>
      <trkpt lat="43.50182" lon="6.39058">
        <ele>188</ele>
        <time>2022-09-09T14:19:30Z</time>
      </trkpt>
      <trkpt lat="43.50181" lon="6.3905">
        <ele>188</ele>
        <time>2022-09-09T14:19:38Z</time>
      </trkpt>
      <trkpt lat="43.50181" lon="6.39045">
        <ele>187</ele>
        <time>2022-09-09T14:19:42Z</time>
      </trkpt>
      <trkpt lat="43.50182" lon="6.39041">
        <ele>187</ele>
        <time>2022-09-09T14:19:46Z</time>
      </trkpt>
      <trkpt lat="43.50184" lon="6.39034">
        <ele>185</ele>
        <time>2022-09-09T14:19:52Z</time>
      </trkpt>
      <trkpt lat="43.50185" lon="6.39031">
        <ele>185</ele>
        <time>2022-09-09T14:19:55Z</time>
      </trkpt>
      <trkpt lat="43.50184" lon="6.39027">
        <ele>185</ele>
        <time>2022-09-09T14:20:00Z</time>
      </trkpt>
      <trkpt lat="43.50185" lon="6.39023">
        <ele>185</ele>
        <time>2022-09-09T14:20:08Z</time>
      </trkpt>
      <trkpt lat="43.50187" lon="6.3902">
        <ele>185</ele>
        <time>2022-09-09T14:20:12Z</time>
      </trkpt>
      <trkpt lat="43.50191" lon="6.39005">
        <ele>184</ele>
        <time>2022-09-09T14:20:21Z</time>
      </trkpt>
      <trkpt lat="43.50193" lon="6.38982">
        <ele>180</ele>
        <time>2022-09-09T14:20:36Z</time>
      </trkpt>
      <trkpt lat="43.50194" lon="6.38978">
        <ele>179</ele>
        <time>2022-09-09T14:20:39Z</time>
      </trkpt>
      <trkpt lat="43.50195" lon="6.38965">
        <ele>179</ele>
        <time>2022-09-09T14:20:48Z</time>
      </trkpt>
      <trkpt lat="43.50196" lon="6.3896">
        <ele>179</ele>
        <time>2022-09-09T14:20:51Z</time>
      </trkpt>
      <trkpt lat="43.50205" lon="6.38924">
        <ele>178</ele>
        <time>2022-09-09T14:21:14Z</time>
      </trkpt>
      <trkpt lat="43.50207" lon="6.38914">
        <ele>178</ele>
        <time>2022-09-09T14:21:20Z</time>
      </trkpt>
      <trkpt lat="43.50208" lon="6.38909">
        <ele>179</ele>
        <time>2022-09-09T14:21:23Z</time>
      </trkpt>
      <trkpt lat="43.50207" lon="6.38903">
        <ele>178</ele>
        <time>2022-09-09T14:21:26Z</time>
      </trkpt>
      <trkpt lat="43.50211" lon="6.38885">
        <ele>178</ele>
        <time>2022-09-09T14:21:38Z</time>
      </trkpt>
      <trkpt lat="43.50213" lon="6.38875">
        <ele>179</ele>
        <time>2022-09-09T14:21:44Z</time>
      </trkpt>
      <trkpt lat="43.50214" lon="6.38859">
        <ele>181</ele>
        <time>2022-09-09T14:21:55Z</time>
      </trkpt>
      <trkpt lat="43.50214" lon="6.38848">
        <ele>182</ele>
        <time>2022-09-09T14:22:02Z</time>
      </trkpt>
      <trkpt lat="43.50214" lon="6.38843">
        <ele>182</ele>
        <time>2022-09-09T14:22:05Z</time>
      </trkpt>
      <trkpt lat="43.50214" lon="6.38837">
        <ele>182</ele>
        <time>2022-09-09T14:22:09Z</time>
      </trkpt>
      <trkpt lat="43.50212" lon="6.38832">
        <ele>182</ele>
        <time>2022-09-09T14:22:12Z</time>
      </trkpt>
      <trkpt lat="43.50209" lon="6.3883">
        <ele>182</ele>
        <time>2022-09-09T14:22:16Z</time>
      </trkpt>
      <trkpt lat="43.50207" lon="6.38825">
        <ele>183</ele>
        <time>2022-09-09T14:22:20Z</time>
      </trkpt>
      <trkpt lat="43.50204" lon="6.38821">
        <ele>183</ele>
        <time>2022-09-09T14:22:24Z</time>
      </trkpt>
      <trkpt lat="43.50199" lon="6.38821">
        <ele>184</ele>
        <time>2022-09-09T14:22:29Z</time>
      </trkpt>
      <trkpt lat="43.50196" lon="6.38818">
        <ele>184</ele>
        <time>2022-09-09T14:22:33Z</time>
      </trkpt>
      <trkpt lat="43.50193" lon="6.38818">
        <ele>185</ele>
        <time>2022-09-09T14:22:36Z</time>
      </trkpt>
      <trkpt lat="43.50189" lon="6.38817">
        <ele>187</ele>
        <time>2022-09-09T14:22:39Z</time>
      </trkpt>
      <trkpt lat="43.5017" lon="6.38803">
        <ele>185</ele>
        <time>2022-09-09T14:22:58Z</time>
      </trkpt>
      <trkpt lat="43.50143" lon="6.38786">
        <ele>184</ele>
        <time>2022-09-09T14:23:31Z</time>
      </trkpt>
      <trkpt lat="43.50137" lon="6.3878">
        <ele>186</ele>
        <time>2022-09-09T14:23:38Z</time>
      </trkpt>
      <trkpt lat="43.50132" lon="6.38777">
        <ele>186</ele>
        <time>2022-09-09T14:23:43Z</time>
      </trkpt>
      <trkpt lat="43.5013" lon="6.38772">
        <ele>188</ele>
        <time>2022-09-09T14:23:48Z</time>
      </trkpt>
      <trkpt lat="43.50129" lon="6.38769">
        <ele>188</ele>
        <time>2022-09-09T14:23:51Z</time>
      </trkpt>
      <trkpt lat="43.50129" lon="6.38764">
        <ele>188</ele>
        <time>2022-09-09T14:23:56Z</time>
      </trkpt>
      <trkpt lat="43.5013" lon="6.38761">
        <ele>188</ele>
        <time>2022-09-09T14:23:59Z</time>
      </trkpt>
      <trkpt lat="43.50131" lon="6.38746">
        <ele>188</ele>
        <time>2022-09-09T14:24:08Z</time>
      </trkpt>
      <trkpt lat="43.50133" lon="6.38732">
        <ele>186</ele>
        <time>2022-09-09T14:24:17Z</time>
      </trkpt>
      <trkpt lat="43.50133" lon="6.38727">
        <ele>186</ele>
        <time>2022-09-09T14:24:20Z</time>
      </trkpt>
      <trkpt lat="43.50133" lon="6.38721">
        <ele>186</ele>
        <time>2022-09-09T14:24:24Z</time>
      </trkpt>
      <trkpt lat="43.50135" lon="6.38715">
        <ele>186</ele>
        <time>2022-09-09T14:24:29Z</time>
      </trkpt>
      <trkpt lat="43.50135" lon="6.38711">
        <ele>185</ele>
        <time>2022-09-09T14:24:32Z</time>
      </trkpt>
      <trkpt lat="43.50139" lon="6.387">
        <ele>184</ele>
        <time>2022-09-09T14:24:41Z</time>
      </trkpt>
      <trkpt lat="43.50139" lon="6.38696">
        <ele>184</ele>
        <time>2022-09-09T14:24:44Z</time>
      </trkpt>
      <trkpt lat="43.50141" lon="6.38686">
        <ele>185</ele>
        <time>2022-09-09T14:24:51Z</time>
      </trkpt>
      <trkpt lat="43.50141" lon="6.38681">
        <ele>185</ele>
        <time>2022-09-09T14:24:54Z</time>
      </trkpt>
      <trkpt lat="43.50142" lon="6.38669">
        <ele>185</ele>
        <time>2022-09-09T14:25:04Z</time>
      </trkpt>
      <trkpt lat="43.50144" lon="6.38661">
        <ele>185</ele>
        <time>2022-09-09T14:25:09Z</time>
      </trkpt>
      <trkpt lat="43.50158" lon="6.38626">
        <ele>188</ele>
        <time>2022-09-09T14:25:38Z</time>
      </trkpt>
      <trkpt lat="43.50161" lon="6.38611">
        <ele>189</ele>
        <time>2022-09-09T14:25:54Z</time>
      </trkpt>
      <trkpt lat="43.50161" lon="6.38608">
        <ele>189</ele>
        <time>2022-09-09T14:25:56Z</time>
      </trkpt>
      <trkpt lat="43.50162" lon="6.38601">
        <ele>189</ele>
        <time>2022-09-09T14:26:01Z</time>
      </trkpt>
      <trkpt lat="43.50163" lon="6.38598">
        <ele>189</ele>
        <time>2022-09-09T14:26:04Z</time>
      </trkpt>
      <trkpt lat="43.50163" lon="6.38595">
        <ele>188</ele>
        <time>2022-09-09T14:26:07Z</time>
      </trkpt>
      <trkpt lat="43.50166" lon="6.38586">
        <ele>187</ele>
        <time>2022-09-09T14:26:15Z</time>
      </trkpt>
      <trkpt lat="43.50167" lon="6.38574">
        <ele>186</ele>
        <time>2022-09-09T14:26:23Z</time>
      </trkpt>
      <trkpt lat="43.50167" lon="6.3857">
        <ele>186</ele>
        <time>2022-09-09T14:26:26Z</time>
      </trkpt>
      <trkpt lat="43.50166" lon="6.38564">
        <ele>186</ele>
        <time>2022-09-09T14:26:30Z</time>
      </trkpt>
      <trkpt lat="43.50166" lon="6.38561">
        <ele>187</ele>
        <time>2022-09-09T14:26:32Z</time>
      </trkpt>
      <trkpt lat="43.50165" lon="6.38554">
        <ele>189</ele>
        <time>2022-09-09T14:26:37Z</time>
      </trkpt>
      <trkpt lat="43.50167" lon="6.38546">
        <ele>190</ele>
        <time>2022-09-09T14:26:43Z</time>
      </trkpt>
      <trkpt lat="43.50168" lon="6.38528">
        <ele>192</ele>
        <time>2022-09-09T14:26:56Z</time>
      </trkpt>
      <trkpt lat="43.5017" lon="6.38521">
        <ele>193</ele>
        <time>2022-09-09T14:27:02Z</time>
      </trkpt>
      <trkpt lat="43.50169" lon="6.38517">
        <ele>193</ele>
        <time>2022-09-09T14:27:05Z</time>
      </trkpt>
      <trkpt lat="43.50169" lon="6.38512">
        <ele>193</ele>
        <time>2022-09-09T14:27:08Z</time>
      </trkpt>
      <trkpt lat="43.50171" lon="6.38502">
        <ele>193</ele>
        <time>2022-09-09T14:27:15Z</time>
      </trkpt>
      <trkpt lat="43.50171" lon="6.38491">
        <ele>193</ele>
        <time>2022-09-09T14:27:23Z</time>
      </trkpt>
      <trkpt lat="43.50171" lon="6.38487">
        <ele>193</ele>
        <time>2022-09-09T14:27:25Z</time>
      </trkpt>
      <trkpt lat="43.50173" lon="6.38478">
        <ele>193</ele>
        <time>2022-09-09T14:27:31Z</time>
      </trkpt>
      <trkpt lat="43.50174" lon="6.38473">
        <ele>193</ele>
        <time>2022-09-09T14:27:35Z</time>
      </trkpt>
      <trkpt lat="43.50173" lon="6.38468">
        <ele>194</ele>
        <time>2022-09-09T14:27:38Z</time>
      </trkpt>
      <trkpt lat="43.50169" lon="6.38465">
        <ele>193</ele>
        <time>2022-09-09T14:27:42Z</time>
      </trkpt>
      <trkpt lat="43.50167" lon="6.38464">
        <ele>193</ele>
        <time>2022-09-09T14:27:45Z</time>
      </trkpt>
      <trkpt lat="43.50168" lon="6.38455">
        <ele>194</ele>
        <time>2022-09-09T14:27:51Z</time>
      </trkpt>
      <trkpt lat="43.5017" lon="6.38451">
        <ele>193</ele>
        <time>2022-09-09T14:27:54Z</time>
      </trkpt>
      <trkpt lat="43.50171" lon="6.38435">
        <ele>192</ele>
        <time>2022-09-09T14:28:10Z</time>
      </trkpt>
      <trkpt lat="43.50171" lon="6.38429">
        <ele>191</ele>
        <time>2022-09-09T14:28:17Z</time>
      </trkpt>
      <trkpt lat="43.50174" lon="6.38424">
        <ele>192</ele>
        <time>2022-09-09T14:28:24Z</time>
      </trkpt>
      <trkpt lat="43.50176" lon="6.3842">
        <ele>192</ele>
        <time>2022-09-09T14:28:29Z</time>
      </trkpt>
      <trkpt lat="43.50176" lon="6.38415">
        <ele>191</ele>
        <time>2022-09-09T14:28:33Z</time>
      </trkpt>
      <trkpt lat="43.50174" lon="6.3841">
        <ele>191</ele>
        <time>2022-09-09T14:28:41Z</time>
      </trkpt>
      <trkpt lat="43.50172" lon="6.38405">
        <ele>192</ele>
        <time>2022-09-09T14:28:51Z</time>
      </trkpt>
      <trkpt lat="43.50171" lon="6.38398">
        <ele>190</ele>
        <time>2022-09-09T14:29:04Z</time>
      </trkpt>
      <trkpt lat="43.50175" lon="6.38387">
        <ele>191</ele>
        <time>2022-09-09T14:29:13Z</time>
      </trkpt>
      <trkpt lat="43.50175" lon="6.38381">
        <ele>191</ele>
        <time>2022-09-09T14:29:18Z</time>
      </trkpt>
      <trkpt lat="43.50174" lon="6.38375">
        <ele>192</ele>
        <time>2022-09-09T14:29:22Z</time>
      </trkpt>
      <trkpt lat="43.50173" lon="6.3837">
        <ele>192</ele>
        <time>2022-09-09T14:29:26Z</time>
      </trkpt>
      <trkpt lat="43.50174" lon="6.38364">
        <ele>191</ele>
        <time>2022-09-09T14:29:32Z</time>
      </trkpt>
      <trkpt lat="43.50172" lon="6.38359">
        <ele>192</ele>
        <time>2022-09-09T14:29:39Z</time>
      </trkpt>
      <trkpt lat="43.50172" lon="6.38353">
        <ele>193</ele>
        <time>2022-09-09T14:29:44Z</time>
      </trkpt>
      <trkpt lat="43.50173" lon="6.38347">
        <ele>194</ele>
        <time>2022-09-09T14:29:49Z</time>
      </trkpt>
      <trkpt lat="43.50172" lon="6.38343">
        <ele>195</ele>
        <time>2022-09-09T14:29:53Z</time>
      </trkpt>
      <trkpt lat="43.5017" lon="6.38338">
        <ele>195</ele>
        <time>2022-09-09T14:29:57Z</time>
      </trkpt>
      <trkpt lat="43.50171" lon="6.38333">
        <ele>195</ele>
        <time>2022-09-09T14:30:01Z</time>
      </trkpt>
      <trkpt lat="43.50174" lon="6.38331">
        <ele>196</ele>
        <time>2022-09-09T14:30:07Z</time>
      </trkpt>
      <trkpt lat="43.50175" lon="6.38325">
        <ele>197</ele>
        <time>2022-09-09T14:30:13Z</time>
      </trkpt>
      <trkpt lat="43.50177" lon="6.3832">
        <ele>198</ele>
        <time>2022-09-09T14:30:18Z</time>
      </trkpt>
      <trkpt lat="43.50178" lon="6.38314">
        <ele>200</ele>
        <time>2022-09-09T14:30:24Z</time>
      </trkpt>
      <trkpt lat="43.50177" lon="6.38308">
        <ele>200</ele>
        <time>2022-09-09T14:30:27Z</time>
      </trkpt>
      <trkpt lat="43.50177" lon="6.38302">
        <ele>200</ele>
        <time>2022-09-09T14:30:32Z</time>
      </trkpt>
      <trkpt lat="43.50175" lon="6.3829">
        <ele>200</ele>
        <time>2022-09-09T14:30:41Z</time>
      </trkpt>
      <trkpt lat="43.50172" lon="6.38287">
        <ele>200</ele>
        <time>2022-09-09T14:30:46Z</time>
      </trkpt>
      <trkpt lat="43.50171" lon="6.38283">
        <ele>200</ele>
        <time>2022-09-09T14:30:50Z</time>
      </trkpt>
      <trkpt lat="43.50171" lon="6.38278">
        <ele>201</ele>
        <time>2022-09-09T14:30:54Z</time>
      </trkpt>
      <trkpt lat="43.50169" lon="6.38264">
        <ele>203</ele>
        <time>2022-09-09T14:31:06Z</time>
      </trkpt>
      <trkpt lat="43.5017" lon="6.3826">
        <ele>204</ele>
        <time>2022-09-09T14:31:11Z</time>
      </trkpt>
      <trkpt lat="43.50171" lon="6.38256">
        <ele>205</ele>
        <time>2022-09-09T14:31:16Z</time>
      </trkpt>
      <trkpt lat="43.50172" lon="6.38251">
        <ele>206</ele>
        <time>2022-09-09T14:31:20Z</time>
      </trkpt>
      <trkpt lat="43.50173" lon="6.38248">
        <ele>206</ele>
        <time>2022-09-09T14:31:23Z</time>
      </trkpt>
      <trkpt lat="43.50175" lon="6.38245">
        <ele>206</ele>
        <time>2022-09-09T14:31:26Z</time>
      </trkpt>
      <trkpt lat="43.50175" lon="6.3824">
        <ele>207</ele>
        <time>2022-09-09T14:31:30Z</time>
      </trkpt>
      <trkpt lat="43.50176" lon="6.38217">
        <ele>206</ele>
        <time>2022-09-09T14:31:49Z</time>
      </trkpt>
      <trkpt lat="43.50176" lon="6.38211">
        <ele>205</ele>
        <time>2022-09-09T14:31:53Z</time>
      </trkpt>
      <trkpt lat="43.50175" lon="6.38208">
        <ele>205</ele>
        <time>2022-09-09T14:32:00Z</time>
      </trkpt>
      <trkpt lat="43.50175" lon="6.38204">
        <ele>205</ele>
        <time>2022-09-09T14:32:05Z</time>
      </trkpt>
      <trkpt lat="43.50175" lon="6.38196">
        <ele>207</ele>
        <time>2022-09-09T14:32:16Z</time>
      </trkpt>
      <trkpt lat="43.50177" lon="6.38192">
        <ele>208</ele>
        <time>2022-09-09T14:32:20Z</time>
      </trkpt>
      <trkpt lat="43.50179" lon="6.38182">
        <ele>208</ele>
        <time>2022-09-09T14:32:32Z</time>
      </trkpt>
      <trkpt lat="43.50179" lon="6.38172">
        <ele>207</ele>
        <time>2022-09-09T14:32:41Z</time>
      </trkpt>
      <trkpt lat="43.5018" lon="6.3816">
        <ele>207</ele>
        <time>2022-09-09T14:32:53Z</time>
      </trkpt>
      <trkpt lat="43.5018" lon="6.38156">
        <ele>207</ele>
        <time>2022-09-09T14:32:57Z</time>
      </trkpt>
      <trkpt lat="43.5018" lon="6.38147">
        <ele>206</ele>
        <time>2022-09-09T14:33:05Z</time>
      </trkpt>
      <trkpt lat="43.5018" lon="6.38142">
        <ele>205</ele>
        <time>2022-09-09T14:33:08Z</time>
      </trkpt>
      <trkpt lat="43.50179" lon="6.38137">
        <ele>205</ele>
        <time>2022-09-09T14:33:13Z</time>
      </trkpt>
      <trkpt lat="43.50179" lon="6.38132">
        <ele>205</ele>
        <time>2022-09-09T14:33:17Z</time>
      </trkpt>
      <trkpt lat="43.50177" lon="6.38128">
        <ele>205</ele>
        <time>2022-09-09T14:33:21Z</time>
      </trkpt>
      <trkpt lat="43.50177" lon="6.38115">
        <ele>206</ele>
        <time>2022-09-09T14:33:32Z</time>
      </trkpt>
      <trkpt lat="43.50177" lon="6.3811">
        <ele>206</ele>
        <time>2022-09-09T14:33:37Z</time>
      </trkpt>
      <trkpt lat="43.50178" lon="6.38102">
        <ele>206</ele>
        <time>2022-09-09T14:33:47Z</time>
      </trkpt>
      <trkpt lat="43.50181" lon="6.38099">
        <ele>206</ele>
        <time>2022-09-09T14:33:54Z</time>
      </trkpt>
      <trkpt lat="43.50185" lon="6.381">
        <ele>207</ele>
        <time>2022-09-09T14:34:00Z</time>
      </trkpt>
      <trkpt lat="43.50189" lon="6.38096">
        <ele>208</ele>
        <time>2022-09-09T14:34:06Z</time>
      </trkpt>
      <trkpt lat="43.50193" lon="6.38088">
        <ele>208</ele>
        <time>2022-09-09T14:34:18Z</time>
      </trkpt>
      <trkpt lat="43.50194" lon="6.38085">
        <ele>210</ele>
        <time>2022-09-09T14:35:02Z</time>
      </trkpt>
      <trkpt lat="43.50195" lon="6.38081">
        <ele>210</ele>
        <time>2022-09-09T14:35:07Z</time>
      </trkpt>
      <trkpt lat="43.50205" lon="6.3807">
        <ele>210</ele>
        <time>2022-09-09T14:35:31Z</time>
      </trkpt>
      <trkpt lat="43.50206" lon="6.38065">
        <ele>210</ele>
        <time>2022-09-09T14:35:38Z</time>
      </trkpt>
      <trkpt lat="43.50208" lon="6.38061">
        <ele>209</ele>
        <time>2022-09-09T14:35:42Z</time>
      </trkpt>
      <trkpt lat="43.50211" lon="6.38058">
        <ele>209</ele>
        <time>2022-09-09T14:35:49Z</time>
      </trkpt>
      <trkpt lat="43.50214" lon="6.38056">
        <ele>209</ele>
        <time>2022-09-09T14:35:55Z</time>
      </trkpt>
      <trkpt lat="43.50216" lon="6.38051">
        <ele>210</ele>
        <time>2022-09-09T14:36:02Z</time>
      </trkpt>
      <trkpt lat="43.50219" lon="6.38045">
        <ele>211</ele>
        <time>2022-09-09T14:36:12Z</time>
      </trkpt>
      <trkpt lat="43.50222" lon="6.38041">
        <ele>212</ele>
        <time>2022-09-09T14:36:20Z</time>
      </trkpt>
      <trkpt lat="43.50225" lon="6.38038">
        <ele>212</ele>
        <time>2022-09-09T14:36:28Z</time>
      </trkpt>
      <trkpt lat="43.50227" lon="6.38033">
        <ele>213</ele>
        <time>2022-09-09T14:36:34Z</time>
      </trkpt>
      <trkpt lat="43.50228" lon="6.38028">
        <ele>214</ele>
        <time>2022-09-09T14:36:40Z</time>
      </trkpt>
      <trkpt lat="43.50229" lon="6.38024">
        <ele>214</ele>
        <time>2022-09-09T14:36:48Z</time>
      </trkpt>
      <trkpt lat="43.50229" lon="6.38019">
        <ele>216</ele>
        <time>2022-09-09T14:37:00Z</time>
      </trkpt>
      <trkpt lat="43.5023" lon="6.38014">
        <ele>217</ele>
        <time>2022-09-09T14:37:08Z</time>
      </trkpt>
      <trkpt lat="43.50232" lon="6.38005">
        <ele>217</ele>
        <time>2022-09-09T14:37:20Z</time>
      </trkpt>
      <trkpt lat="43.50237" lon="6.37998">
        <ele>217</ele>
        <time>2022-09-09T14:37:30Z</time>
      </trkpt>
      <trkpt lat="43.50241" lon="6.37991">
        <ele>218</ele>
        <time>2022-09-09T14:37:40Z</time>
      </trkpt>
      <trkpt lat="43.50241" lon="6.37987">
        <ele>219</ele>
        <time>2022-09-09T14:37:47Z</time>
      </trkpt>
      <trkpt lat="43.50242" lon="6.37981">
        <ele>220</ele>
        <time>2022-09-09T14:37:54Z</time>
      </trkpt>
      <trkpt lat="43.5024" lon="6.37975">
        <ele>222</ele>
        <time>2022-09-09T14:37:59Z</time>
      </trkpt>
      <trkpt lat="43.50241" lon="6.3797">
        <ele>223</ele>
        <time>2022-09-09T14:38:04Z</time>
      </trkpt>
      <trkpt lat="43.50243" lon="6.37966">
        <ele>223</ele>
        <time>2022-09-09T14:38:11Z</time>
      </trkpt>
      <trkpt lat="43.50246" lon="6.37963">
        <ele>225</ele>
        <time>2022-09-09T14:38:17Z</time>
      </trkpt>
      <trkpt lat="43.50248" lon="6.37959">
        <ele>225</ele>
        <time>2022-09-09T14:38:22Z</time>
      </trkpt>
      <trkpt lat="43.50247" lon="6.37955">
        <ele>227</ele>
        <time>2022-09-09T14:38:29Z</time>
      </trkpt>
      <trkpt lat="43.50248" lon="6.3795">
        <ele>228</ele>
        <time>2022-09-09T14:38:37Z</time>
      </trkpt>
      <trkpt lat="43.50244" lon="6.37947">
        <ele>230</ele>
        <time>2022-09-09T14:38:50Z</time>
      </trkpt>
      <trkpt lat="43.50242" lon="6.37944">
        <ele>230</ele>
        <time>2022-09-09T14:38:55Z</time>
      </trkpt>
      <trkpt lat="43.50241" lon="6.37939">
        <ele>230</ele>
        <time>2022-09-09T14:38:58Z</time>
      </trkpt>
      <trkpt lat="43.50239" lon="6.37936">
        <ele>231</ele>
        <time>2022-09-09T14:39:04Z</time>
      </trkpt>
      <trkpt lat="43.50237" lon="6.37934">
        <ele>231</ele>
        <time>2022-09-09T14:39:11Z</time>
      </trkpt>
      <trkpt lat="43.50235" lon="6.3793">
        <ele>231</ele>
        <time>2022-09-09T14:39:35Z</time>
      </trkpt>
      <trkpt lat="43.50233" lon="6.37928">
        <ele>230</ele>
        <time>2022-09-09T14:40:01Z</time>
      </trkpt>
      <trkpt lat="43.5023" lon="6.37925">
        <ele>231</ele>
        <time>2022-09-09T14:40:08Z</time>
      </trkpt>
      <trkpt lat="43.50225" lon="6.3792">
        <ele>232</ele>
        <time>2022-09-09T14:40:14Z</time>
      </trkpt>
      <trkpt lat="43.50223" lon="6.37917">
        <ele>233</ele>
        <time>2022-09-09T14:40:19Z</time>
      </trkpt>
      <trkpt lat="43.50222" lon="6.37913">
        <ele>233</ele>
        <time>2022-09-09T14:40:23Z</time>
      </trkpt>
      <trkpt lat="43.50222" lon="6.37908">
        <ele>234</ele>
        <time>2022-09-09T14:40:26Z</time>
      </trkpt>
      <trkpt lat="43.50221" lon="6.37904">
        <ele>235</ele>
        <time>2022-09-09T14:40:30Z</time>
      </trkpt>
      <trkpt lat="43.5022" lon="6.37898">
        <ele>237</ele>
        <time>2022-09-09T14:40:36Z</time>
      </trkpt>
      <trkpt lat="43.50219" lon="6.37894">
        <ele>238</ele>
        <time>2022-09-09T14:40:40Z</time>
      </trkpt>
      <trkpt lat="43.50219" lon="6.3789">
        <ele>239</ele>
        <time>2022-09-09T14:40:43Z</time>
      </trkpt>
      <trkpt lat="43.50219" lon="6.37882">
        <ele>241</ele>
        <time>2022-09-09T14:40:49Z</time>
      </trkpt>
      <trkpt lat="43.50218" lon="6.37876">
        <ele>241</ele>
        <time>2022-09-09T14:40:53Z</time>
      </trkpt>
      <trkpt lat="43.50213" lon="6.37862">
        <ele>242</ele>
        <time>2022-09-09T14:41:04Z</time>
      </trkpt>
      <trkpt lat="43.50213" lon="6.37858">
        <ele>243</ele>
        <time>2022-09-09T14:41:07Z</time>
      </trkpt>
      <trkpt lat="43.50214" lon="6.37854">
        <ele>243</ele>
        <time>2022-09-09T14:41:10Z</time>
      </trkpt>
      <trkpt lat="43.50213" lon="6.37849">
        <ele>243</ele>
        <time>2022-09-09T14:41:14Z</time>
      </trkpt>
      <trkpt lat="43.50212" lon="6.37844">
        <ele>243</ele>
        <time>2022-09-09T14:41:19Z</time>
      </trkpt>
      <trkpt lat="43.50212" lon="6.37837">
        <ele>244</ele>
        <time>2022-09-09T14:41:23Z</time>
      </trkpt>
      <trkpt lat="43.50211" lon="6.37833">
        <ele>243</ele>
        <time>2022-09-09T14:41:26Z</time>
      </trkpt>
      <trkpt lat="43.50211" lon="6.37824">
        <ele>244</ele>
        <time>2022-09-09T14:41:34Z</time>
      </trkpt>
      <trkpt lat="43.5021" lon="6.3781">
        <ele>245</ele>
        <time>2022-09-09T14:41:43Z</time>
      </trkpt>
      <trkpt lat="43.50208" lon="6.37799">
        <ele>245</ele>
        <time>2022-09-09T14:41:51Z</time>
      </trkpt>
      <trkpt lat="43.50208" lon="6.37794">
        <ele>246</ele>
        <time>2022-09-09T14:41:54Z</time>
      </trkpt>
      <trkpt lat="43.50208" lon="6.37787">
        <ele>247</ele>
        <time>2022-09-09T14:42:00Z</time>
      </trkpt>
      <trkpt lat="43.50208" lon="6.37783">
        <ele>248</ele>
        <time>2022-09-09T14:42:02Z</time>
      </trkpt>
      <trkpt lat="43.50206" lon="6.37775">
        <ele>248</ele>
        <time>2022-09-09T14:42:08Z</time>
      </trkpt>
      <trkpt lat="43.50206" lon="6.3777">
        <ele>249</ele>
        <time>2022-09-09T14:42:13Z</time>
      </trkpt>
      <trkpt lat="43.50198" lon="6.37732">
        <ele>249</ele>
        <time>2022-09-09T14:42:40Z</time>
      </trkpt>
      <trkpt lat="43.50197" lon="6.37728">
        <ele>249</ele>
        <time>2022-09-09T14:42:44Z</time>
      </trkpt>
      <trkpt lat="43.50197" lon="6.37723">
        <ele>249</ele>
        <time>2022-09-09T14:42:47Z</time>
      </trkpt>
      <trkpt lat="43.50196" lon="6.3772">
        <ele>249</ele>
        <time>2022-09-09T14:42:50Z</time>
      </trkpt>
      <trkpt lat="43.50196" lon="6.37716">
        <ele>249</ele>
        <time>2022-09-09T14:42:53Z</time>
      </trkpt>
      <trkpt lat="43.50194" lon="6.37711">
        <ele>249</ele>
        <time>2022-09-09T14:42:56Z</time>
      </trkpt>
      <trkpt lat="43.50193" lon="6.37707">
        <ele>249</ele>
        <time>2022-09-09T14:42:59Z</time>
      </trkpt>
      <trkpt lat="43.50191" lon="6.37703">
        <ele>250</ele>
        <time>2022-09-09T14:43:03Z</time>
      </trkpt>
      <trkpt lat="43.50191" lon="6.37698">
        <ele>250</ele>
        <time>2022-09-09T14:43:07Z</time>
      </trkpt>
      <trkpt lat="43.5019" lon="6.37693">
        <ele>250</ele>
        <time>2022-09-09T14:43:10Z</time>
      </trkpt>
      <trkpt lat="43.5019" lon="6.37688">
        <ele>250</ele>
        <time>2022-09-09T14:43:15Z</time>
      </trkpt>
      <trkpt lat="43.50188" lon="6.37659">
        <ele>252</ele>
        <time>2022-09-09T14:43:39Z</time>
      </trkpt>
      <trkpt lat="43.50187" lon="6.37653">
        <ele>252</ele>
        <time>2022-09-09T14:43:43Z</time>
      </trkpt>
      <trkpt lat="43.50185" lon="6.37649">
        <ele>253</ele>
        <time>2022-09-09T14:43:47Z</time>
      </trkpt>
      <trkpt lat="43.50181" lon="6.37644">
        <ele>254</ele>
        <time>2022-09-09T14:43:51Z</time>
      </trkpt>
      <trkpt lat="43.50178" lon="6.37642">
        <ele>254</ele>
        <time>2022-09-09T14:43:57Z</time>
      </trkpt>
      <trkpt lat="43.50174" lon="6.37631">
        <ele>256</ele>
        <time>2022-09-09T14:44:05Z</time>
      </trkpt>
      <trkpt lat="43.50168" lon="6.37625">
        <ele>256</ele>
        <time>2022-09-09T14:44:13Z</time>
      </trkpt>
      <trkpt lat="43.50165" lon="6.37623">
        <ele>256</ele>
        <time>2022-09-09T14:44:16Z</time>
      </trkpt>
      <trkpt lat="43.50154" lon="6.37603">
        <ele>256</ele>
        <time>2022-09-09T14:44:46Z</time>
      </trkpt>
      <trkpt lat="43.5015" lon="6.37597">
        <ele>257</ele>
        <time>2022-09-09T14:44:52Z</time>
      </trkpt>
      <trkpt lat="43.5015" lon="6.37593">
        <ele>257</ele>
        <time>2022-09-09T14:44:55Z</time>
      </trkpt>
      <trkpt lat="43.50148" lon="6.3759">
        <ele>257</ele>
        <time>2022-09-09T14:44:58Z</time>
      </trkpt>
      <trkpt lat="43.50146" lon="6.37587">
        <ele>258</ele>
        <time>2022-09-09T14:45:01Z</time>
      </trkpt>
      <trkpt lat="43.50144" lon="6.37583">
        <ele>258</ele>
        <time>2022-09-09T14:45:04Z</time>
      </trkpt>
      <trkpt lat="43.50139" lon="6.37577">
        <ele>257</ele>
        <time>2022-09-09T14:45:10Z</time>
      </trkpt>
      <trkpt lat="43.50128" lon="6.37565">
        <ele>258</ele>
        <time>2022-09-09T14:45:23Z</time>
      </trkpt>
      <trkpt lat="43.50126" lon="6.37563">
        <ele>258</ele>
        <time>2022-09-09T14:45:26Z</time>
      </trkpt>
      <trkpt lat="43.50125" lon="6.37559">
        <ele>258</ele>
        <time>2022-09-09T14:45:29Z</time>
      </trkpt>
      <trkpt lat="43.50123" lon="6.37554">
        <ele>258</ele>
        <time>2022-09-09T14:45:32Z</time>
      </trkpt>
      <trkpt lat="43.50119" lon="6.37546">
        <ele>259</ele>
        <time>2022-09-09T14:45:39Z</time>
      </trkpt>
      <trkpt lat="43.50117" lon="6.37542">
        <ele>259</ele>
        <time>2022-09-09T14:45:43Z</time>
      </trkpt>
      <trkpt lat="43.50115" lon="6.37534">
        <ele>259</ele>
        <time>2022-09-09T14:45:50Z</time>
      </trkpt>
      <trkpt lat="43.50114" lon="6.37531">
        <ele>259</ele>
        <time>2022-09-09T14:45:53Z</time>
      </trkpt>
      <trkpt lat="43.50113" lon="6.37528">
        <ele>259</ele>
        <time>2022-09-09T14:45:56Z</time>
      </trkpt>
      <trkpt lat="43.50101" lon="6.37501">
        <ele>262</ele>
        <time>2022-09-09T14:46:29Z</time>
      </trkpt>
      <trkpt lat="43.501" lon="6.37497">
        <ele>261</ele>
        <time>2022-09-09T14:46:33Z</time>
      </trkpt>
      <trkpt lat="43.50098" lon="6.37492">
        <ele>261</ele>
        <time>2022-09-09T14:46:37Z</time>
      </trkpt>
      <trkpt lat="43.50097" lon="6.37486">
        <ele>261</ele>
        <time>2022-09-09T14:46:43Z</time>
      </trkpt>
      <trkpt lat="43.50097" lon="6.37481">
        <ele>261</ele>
        <time>2022-09-09T14:46:46Z</time>
      </trkpt>
      <trkpt lat="43.50095" lon="6.37477">
        <ele>262</ele>
        <time>2022-09-09T14:46:50Z</time>
      </trkpt>
      <trkpt lat="43.50093" lon="6.37472">
        <ele>263</ele>
        <time>2022-09-09T14:46:54Z</time>
      </trkpt>
      <trkpt lat="43.50089" lon="6.37457">
        <ele>264</ele>
        <time>2022-09-09T14:47:05Z</time>
      </trkpt>
      <trkpt lat="43.50088" lon="6.37452">
        <ele>264</ele>
        <time>2022-09-09T14:47:10Z</time>
      </trkpt>
      <trkpt lat="43.50087" lon="6.37447">
        <ele>264</ele>
        <time>2022-09-09T14:47:15Z</time>
      </trkpt>
      <trkpt lat="43.50091" lon="6.37405">
        <ele>268</ele>
        <time>2022-09-09T14:47:47Z</time>
      </trkpt>
      <trkpt lat="43.50088" lon="6.37389">
        <ele>270</ele>
        <time>2022-09-09T14:47:58Z</time>
      </trkpt>
      <trkpt lat="43.50086" lon="6.37386">
        <ele>270</ele>
        <time>2022-09-09T14:48:00Z</time>
      </trkpt>
      <trkpt lat="43.50084" lon="6.37383">
        <ele>270</ele>
        <time>2022-09-09T14:48:02Z</time>
      </trkpt>
      <trkpt lat="43.5008" lon="6.37381">
        <ele>271</ele>
        <time>2022-09-09T14:48:05Z</time>
      </trkpt>
      <trkpt lat="43.50079" lon="6.37377">
        <ele>272</ele>
        <time>2022-09-09T14:48:08Z</time>
      </trkpt>
      <trkpt lat="43.5008" lon="6.37368">
        <ele>274</ele>
        <time>2022-09-09T14:48:16Z</time>
      </trkpt>
      <trkpt lat="43.50079" lon="6.37365">
        <ele>274</ele>
        <time>2022-09-09T14:48:19Z</time>
      </trkpt>
      <trkpt lat="43.50077" lon="6.3736">
        <ele>275</ele>
        <time>2022-09-09T14:48:33Z</time>
      </trkpt>
    </trkseg>
  </trk>
</gpx>